Wetterdaten: Sonntag, 21.03.2021
Datum Zeit Temp. Aussen Temp. o. S. Temp +5cm Feuchte Auss Luftdruck Regen Sonnenschein Regendauer Solar Windben Empfang
21.03.2021 00:00 5,8 C 5,0 C 2,8 C 90 % 1025,5 hPa 0,0 l/m 0 min 0 min 0 W/m 9,7 km/h (2 Bft) 97,87 %
21.03.2021 00:02 5,8 C 5,0 C 2,8 C 90 % 1025,5 hPa 0,0 l/m 0 min 0 min 0 W/m 3,2 km/h (1 Bft) 100,00 %
21.03.2021 00:04 5,8 C 5,0 C 2,8 C 90 % 1025,5 hPa 0,0 l/m 0 min 0 min 0 W/m 6,4 km/h (2 Bft) 100,00 %
21.03.2021 00:08 5,7 C 5,0 C 2,8 C 90 % 1025,4 hPa 0,0 l/m 0 min 0 min 0 W/m 12,9 km/h (3 Bft) 95,70 %
21.03.2021 00:10 5,8 C 5,0 C 2,8 C 90 % 1025,4 hPa 0,0 l/m 0 min 0 min 0 W/m 9,7 km/h (2 Bft) 93,62 %
21.03.2021 00:12 5,8 C 5,0 C 2,8 C 90 % 1025,3 hPa 0,0 l/m 0 min 0 min 0 W/m 9,7 km/h (2 Bft) 95,74 %
21.03.2021 00:14 5,7 C 5,0 C 2,8 C 90 % 1025,4 hPa 0,0 l/m 0 min 0 min 0 W/m 12,9 km/h (3 Bft) 95,74 %
21.03.2021 00:16 5,7 C 5,0 C 2,8 C 91 % 1025,4 hPa 0,0 l/m 0 min 0 min 0 W/m 9,7 km/h (2 Bft) 91,49 %
21.03.2021 00:18 5,7 C 5,0 C 2,8 C 91 % 1025,4 hPa 0,0 l/m 0 min 0 min 0 W/m 9,7 km/h (2 Bft) 93,48 %
21.03.2021 00:20 5,7 C 5,0 C 2,8 C 91 % 1025,4 hPa 0,0 l/m 0 min 0 min 0 W/m 9,7 km/h (2 Bft) 95,74 %
21.03.2021 00:22 5,7 C 5,0 C 2,8 C 91 % 1025,4 hPa 0,0 l/m 0 min 0 min 0 W/m 9,7 km/h (2 Bft) 95,74 %
21.03.2021 00:24 5,7 C 5,0 C 2,8 C 91 % 1025,4 hPa 0,0 l/m 0 min 0 min 0 W/m 6,4 km/h (2 Bft) 95,74 %
21.03.2021 00:26 5,7 C 5,0 C 2,8 C 91 % 1025,4 hPa 0,0 l/m 0 min 0 min 0 W/m 6,4 km/h (2 Bft) 93,62 %
21.03.2021 00:28 5,7 C 5,0 C 2,8 C 91 % 1025,4 hPa 0,0 l/m 0 min 0 min 0 W/m 6,4 km/h (2 Bft) 95,74 %
21.03.2021 00:30 5,6 C 5,0 C 2,8 C 91 % 1025,4 hPa 0,0 l/m 0 min 0 min 0 W/m 3,2 km/h (1 Bft) 93,48 %
21.03.2021 00:32 5,6 C 5,0 C 2,8 C 91 % 1025,3 hPa 0,0 l/m 0 min 0 min 0 W/m 6,4 km/h (2 Bft) 93,62 %
21.03.2021 00:34 5,6 C 5,0 C 2,8 C 91 % 1025,2 hPa 0,0 l/m 0 min 0 min 0 W/m 3,2 km/h (1 Bft) 93,62 %
21.03.2021 00:36 5,6 C 5,0 C 2,8 C 91 % 1025,2 hPa 0,0 l/m 0 min 0 min 0 W/m 6,4 km/h (2 Bft) 95,74 %
21.03.2021 00:38 5,6 C 5,0 C 2,8 C 92 % 1025,2 hPa 0,0 l/m 0 min 0 min 0 W/m 12,9 km/h (3 Bft) 95,74 %
21.03.2021 00:40 5,6 C 5,0 C 2,8 C 92 % 1025,1 hPa 0,0 l/m 0 min 0 min 0 W/m 6,4 km/h (2 Bft) 95,35 %
21.03.2021 00:42 5,6 C 5,0 C 2,8 C 92 % 1025,1 hPa 0,0 l/m 0 min 0 min 0 W/m 3,2 km/h (1 Bft) 95,74 %
21.03.2021 00:44 5,6 C 5,0 C 2,8 C 92 % 1025,0 hPa 0,0 l/m 0 min 0 min 0 W/m 3,2 km/h (1 Bft) 93,48 %
21.03.2021 00:46 5,6 C 5,0 C 2,3 C 92 % 1025,0 hPa 0,0 l/m 0 min 0 min 0 W/m 3,2 km/h (1 Bft) 95,92 %
21.03.2021 00:48 5,6 C 5,0 C 2,8 C 92 % 1025,0 hPa 0,0 l/m 0 min 0 min 0 W/m 3,2 km/h (1 Bft) 93,62 %
21.03.2021 00:50 5,6 C 5,0 C 2,3 C 92 % 1025,0 hPa 0,0 l/m 0 min 0 min 0 W/m 3,2 km/h (1 Bft) 97,87 %
21.03.2021 00:52 5,5 C 5,0 C 2,3 C 93 % 1025,0 hPa 0,0 l/m 0 min 0 min 0 W/m 6,4 km/h (2 Bft) 97,87 %
21.03.2021 00:54 5,5 C 5,0 C 2,3 C 93 % 1025,0 hPa 0,0 l/m 0 min 0 min 0 W/m 9,7 km/h (2 Bft) 97,87 %
21.03.2021 00:56 5,5 C 5,0 C 2,3 C 93 % 1024,9 hPa 0,0 l/m 0 min 0 min 0 W/m 9,7 km/h (2 Bft) 95,74 %
21.03.2021 00:58 5,5 C 5,0 C 2,3 C 93 % 1025,0 hPa 0,0 l/m 0 min 0 min 0 W/m 9,7 km/h (2 Bft) 95,65 %
21.03.2021 01:00 5,5 C 5,0 C 2,3 C 93 % 1025,0 hPa 0,0 l/m 0 min 0 min 0 W/m 9,7 km/h (2 Bft) 97,87 %
21.03.2021 01:02 5,5 C 5,0 C 2,3 C 93 % 1025,0 hPa 0,0 l/m 0 min 0 min 0 W/m 6,4 km/h (2 Bft) 97,92 %
21.03.2021 01:04 5,5 C 5,0 C 2,3 C 93 % 1025,0 hPa 0,0 l/m 0 min 0 min 0 W/m 9,7 km/h (2 Bft) 97,87 %
21.03.2021 01:06 5,4 C 5,0 C 2,3 C 93 % 1025,1 hPa 0,0 l/m 0 min 0 min 0 W/m 9,7 km/h (2 Bft) 93,62 %
21.03.2021 01:08 5,4 C 5,0 C 2,3 C 93 % 1025,0 hPa 0,0 l/m 0 min 0 min 0 W/m 6,4 km/h (2 Bft) 95,74 %
21.03.2021 01:10 5,4 C 5,0 C 2,3 C 93 % 1025,1 hPa 0,0 l/m 0 min 0 min 0 W/m 12,9 km/h (3 Bft) 97,83 %
21.03.2021 01:12 5,4 C 5,0 C 2,3 C 93 % 1025,0 hPa 0,0 l/m 0 min 0 min 0 W/m 9,7 km/h (2 Bft) 97,87 %
21.03.2021 01:14 5,4 C 5,0 C 2,3 C 94 % 1025,0 hPa 0,0 l/m 0 min 0 min 0 W/m 6,4 km/h (2 Bft) 95,74 %
21.03.2021 01:16 5,4 C 5,0 C 2,3 C 94 % 1025,0 hPa 0,0 l/m 0 min 0 min 0 W/m 6,4 km/h (2 Bft) 97,87 %
21.03.2021 01:18 5,4 C 5,0 C 2,3 C 94 % 1025,1 hPa 0,0 l/m 0 min 0 min 0 W/m 12,9 km/h (3 Bft) 97,87 %
21.03.2021 01:20 5,4 C 5,0 C 2,3 C 94 % 1025,0 hPa 0,0 l/m 0 min 0 min 0 W/m 6,4 km/h (2 Bft) 93,62 %
21.03.2021 01:22 5,4 C 5,0 C 2,3 C 94 % 1025,0 hPa 0,0 l/m 0 min 0 min 0 W/m 9,7 km/h (2 Bft) 95,65 %
21.03.2021 01:24 5,4 C 5,0 C 2,3 C 94 % 1025,0 hPa 0,0 l/m 0 min 0 min 0 W/m 12,9 km/h (3 Bft) 97,87 %
21.03.2021 01:26 5,4 C 5,0 C 2,3 C 94 % 1025,0 hPa 0,0 l/m 0 min 0 min 0 W/m 12,9 km/h (3 Bft) 95,74 %
21.03.2021 01:28 5,4 C 5,0 C 2,3 C 94 % 1025,0 hPa 0,0 l/m 0 min 0 min 0 W/m 9,7 km/h (2 Bft) 95,74 %
21.03.2021 01:30 5,4 C 5,0 C 2,3 C 94 % 1024,9 hPa 0,0 l/m 0 min 0 min 0 W/m 9,7 km/h (2 Bft) 97,87 %
21.03.2021 01:32 5,4 C 5,0 C 2,3 C 94 % 1024,9 hPa 0,0 l/m 0 min 0 min 0 W/m 6,4 km/h (2 Bft) 97,83 %
21.03.2021 01:34 5,4 C 5,0 C 2,3 C 94 % 1024,9 hPa 0,0 l/m 0 min 0 min 0 W/m 9,7 km/h (2 Bft) 100,00 %
21.03.2021 01:36 5,3 C 5,0 C 2,3 C 94 % 1025,0 hPa 0,0 l/m 0 min 0 min 0 W/m 12,9 km/h (3 Bft) 97,87 %
21.03.2021 01:38 5,3 C 5,0 C 2,3 C 94 % 1025,0 hPa 0,0 l/m 0 min 0 min 0 W/m 9,7 km/h (2 Bft) 95,74 %
21.03.2021 01:40 5,3 C 4,4 C 2,3 C 94 % 1025,0 hPa 0,0 l/m 0 min 0 min 0 W/m 12,9 km/h (3 Bft) 100,00 %
21.03.2021 01:42 5,3 C 4,4 C 2,3 C 94 % 1025,0 hPa 0,0 l/m 0 min 0 min 0 W/m 6,4 km/h (2 Bft) 97,87 %
21.03.2021 01:44 5,3 C 4,4 C 2,3 C 94 % 1025,1 hPa 0,0 l/m 0 min 0 min 0 W/m 9,7 km/h (2 Bft) 100,00 %
21.03.2021 01:46 5,3 C 4,4 C 2,3 C 95 % 1025,1 hPa 0,0 l/m 0 min 0 min 0 W/m 12,9 km/h (3 Bft) 97,67 %
21.03.2021 01:48 5,3 C 4,4 C 2,3 C 95 % 1025,1 hPa 0,0 l/m 0 min 0 min 0 W/m 9,7 km/h (2 Bft) 100,00 %
21.03.2021 01:50 5,3 C 4,4 C 2,3 C 95 % 1025,1 hPa 0,0 l/m 0 min 0 min 0 W/m 9,7 km/h (2 Bft) 97,87 %
21.03.2021 01:52 5,3 C 4,4 C 2,3 C 95 % 1025,1 hPa 0,0 l/m 0 min 0 min 0 W/m 6,4 km/h (2 Bft) 97,87 %
21.03.2021 01:54 5,3 C 4,4 C 2,3 C 95 % 1025,1 hPa 0,0 l/m 0 min 0 min 0 W/m 3,2 km/h (1 Bft) 100,00 %
21.03.2021 01:56 5,3 C 4,4 C 2,3 C 95 % 1025,0 hPa 0,0 l/m 0 min 0 min 0 W/m 6,4 km/h (2 Bft) 100,00 %
21.03.2021 01:58 5,2 C 4,4 C 2,3 C 95 % 1025,0 hPa 0,0 l/m 0 min 0 min 0 W/m 6,4 km/h (2 Bft) 97,87 %
21.03.2021 02:00 5,3 C 4,4 C 2,3 C 95 % 1025,0 hPa 0,0 l/m 0 min 0 min 0 W/m 12,9 km/h (3 Bft) 97,87 %
21.03.2021 02:02 5,2 C 4,4 C 2,3 C 95 % 1025,0 hPa 0,0 l/m 0 min 0 min 0 W/m 6,4 km/h (2 Bft) 98,00 %
21.03.2021 02:04 5,2 C 4,4 C 2,3 C 95 % 1025,0 hPa 0,0 l/m 0 min 0 min 0 W/m 9,7 km/h (2 Bft) 100,00 %
21.03.2021 02:06 5,2 C 4,4 C 2,8 C 95 % 1025,0 hPa 0,0 l/m 0 min 0 min 0 W/m 9,7 km/h (2 Bft) 100,00 %
21.03.2021 02:08 5,2 C 4,4 C 2,8 C 95 % 1025,0 hPa 0,0 l/m 0 min 0 min 0 W/m 6,4 km/h (2 Bft) 100,00 %
21.03.2021 02:10 5,2 C 4,4 C 2,8 C 95 % 1024,9 hPa 0,0 l/m 0 min 0 min 0 W/m 6,4 km/h (2 Bft) 100,00 %
21.03.2021 02:12 5,2 C 4,4 C 2,8 C 95 % 1024,8 hPa 0,0 l/m 0 min 0 min 0 W/m 6,4 km/h (2 Bft) 100,00 %
21.03.2021 02:14 5,2 C 4,4 C 2,8 C 95 % 1024,7 hPa 0,0 l/m 0 min 0 min 0 W/m 9,7 km/h (2 Bft) 95,74 %
21.03.2021 02:16 5,2 C 4,4 C 2,8 C 95 % 1024,7 hPa 0,0 l/m 0 min 0 min 0 W/m 6,4 km/h (2 Bft) 100,00 %
21.03.2021 02:18 5,2 C 4,4 C 2,8 C 95 % 1024,7 hPa 0,0 l/m 0 min 0 min 0 W/m 3,2 km/h (1 Bft) 100,00 %
21.03.2021 02:20 5,2 C 4,4 C 2,8 C 95 % 1024,6 hPa 0,0 l/m 0 min 0 min 0 W/m 6,4 km/h (2 Bft) 97,87 %
21.03.2021 02:22 5,2 C 4,4 C 2,8 C 95 % 1024,3 hPa 0,0 l/m 0 min 0 min 0 W/m 9,7 km/h (2 Bft) 95,74 %
21.03.2021 02:24 5,1 C 4,4 C 2,8 C 95 % 1024,2 hPa 0,0 l/m 0 min 0 min 0 W/m 6,4 km/h (2 Bft) 95,74 %
21.03.2021 02:26 5,1 C 4,4 C 2,8 C 95 % 1024,2 hPa 0,0 l/m 0 min 0 min 0 W/m 3,2 km/h (1 Bft) 95,74 %
21.03.2021 02:28 5,1 C 4,4 C 2,8 C 95 % 1024,0 hPa 0,0 l/m 0 min 0 min 0 W/m 12,9 km/h (3 Bft) 95,65 %
21.03.2021 02:30 5,1 C 4,4 C 2,8 C 95 % 1023,9 hPa 0,0 l/m 0 min 0 min 0 W/m 12,9 km/h (3 Bft) 97,87 %
21.03.2021 02:32 5,1 C 4,4 C 2,8 C 95 % 1023,8 hPa 0,0 l/m 0 min 0 min 0 W/m 12,9 km/h (3 Bft) 95,74 %
21.03.2021 02:34 5,0 C 4,4 C 2,8 C 95 % 1023,9 hPa 0,0 l/m 0 min 0 min 0 W/m 3,2 km/h (1 Bft) 97,87 %
21.03.2021 02:36 5,1 C 4,4 C 2,8 C 96 % 1023,8 hPa 0,0 l/m 0 min 0 min 0 W/m 3,2 km/h (1 Bft) 95,74 %
21.03.2021 02:38 5,1 C 4,4 C 2,8 C 96 % 1023,8 hPa 0,0 l/m 0 min 0 min 0 W/m 6,4 km/h (2 Bft) 95,74 %
21.03.2021 02:40 5,1 C 4,4 C 2,8 C 96 % 1023,8 hPa 0,0 l/m 0 min 0 min 0 W/m 6,4 km/h (2 Bft) 95,65 %
21.03.2021 02:42 5,1 C 4,4 C 2,8 C 96 % 1023,8 hPa 0,0 l/m 0 min 0 min 0 W/m 3,2 km/h (1 Bft) 95,74 %
21.03.2021 02:44 5,1 C 4,4 C 2,8 C 96 % 1023,8 hPa 0,0 l/m 0 min 0 min 0 W/m 6,4 km/h (2 Bft) 95,74 %
21.03.2021 02:46 5,1 C 4,4 C 2,8 C 96 % 1023,8 hPa 0,0 l/m 0 min 0 min 0 W/m 3,2 km/h (1 Bft) 93,62 %
21.03.2021 02:48 5,1 C 4,4 C 2,8 C 96 % 1023,8 hPa 0,0 l/m 0 min 0 min 0 W/m 6,4 km/h (2 Bft) 91,49 %
21.03.2021 02:50 5,1 C 4,4 C 2,8 C 96 % 1023,8 hPa 0,0 l/m 0 min 0 min 0 W/m 3,2 km/h (1 Bft) 89,36 %
21.03.2021 02:52 5,1 C 4,4 C 2,8 C 96 % 1023,8 hPa 0,0 l/m 0 min 0 min 0 W/m 6,4 km/h (2 Bft) 86,96 %
21.03.2021 02:54 5,1 C 4,4 C 2,8 C 96 % 1023,8 hPa 0,0 l/m 0 min 0 min 0 W/m 3,2 km/h (1 Bft) 91,49 %
21.03.2021 02:56 5,1 C 4,4 C 2,8 C 96 % 1023,6 hPa 0,0 l/m 0 min 0 min 0 W/m 6,4 km/h (2 Bft) 91,49 %
21.03.2021 02:58 5,1 C 4,4 C 2,8 C 96 % 1023,6 hPa 0,0 l/m 0 min 0 min 0 W/m 9,7 km/h (2 Bft) 93,62 %
21.03.2021 03:00 5,1 C 4,4 C 2,8 C 96 % 1023,6 hPa 0,0 l/m 0 min 0 min 0 W/m 6,4 km/h (2 Bft) 93,62 %
21.03.2021 03:02 5,1 C 4,4 C 2,8 C 96 % 1023,6 hPa 0,0 l/m 0 min 0 min 0 W/m 3,2 km/h (1 Bft) 93,48 %
21.03.2021 03:04 5,1 C 4,4 C 2,8 C 96 % 1023,5 hPa 0,0 l/m 0 min 0 min 0 W/m 6,4 km/h (2 Bft) 93,62 %
21.03.2021 03:06 5,1 C 4,4 C 2,8 C 96 % 1023,5 hPa 0,0 l/m 0 min 0 min 0 W/m 3,2 km/h (1 Bft) 95,74 %
21.03.2021 03:08 5,1 C 4,4 C 2,8 C 96 % 1023,5 hPa 0,0 l/m 0 min 0 min 0 W/m 3,2 km/h (1 Bft) 95,74 %
21.03.2021 03:10 5,1 C 4,4 C 2,8 C 96 % 1023,6 hPa 0,0 l/m 0 min 0 min 0 W/m 12,9 km/h (3 Bft) 93,62 %
21.03.2021 03:12 5,1 C 4,4 C 2,8 C 96 % 1023,6 hPa 0,0 l/m 0 min 0 min 0 W/m 6,4 km/h (2 Bft) 95,74 %
21.03.2021 03:14 5,1 C 4,4 C 2,8 C 96 % 1023,6 hPa 0,0 l/m 0 min 0 min 0 W/m 6,4 km/h (2 Bft) 95,65 %
21.03.2021 03:16 5,1 C 4,4 C 2,8 C 96 % 1023,5 hPa 0,0 l/m 0 min 0 min 0 W/m 12,9 km/h (3 Bft) 97,87 %
21.03.2021 03:18 5,1 C 4,4 C 2,8 C 96 % 1023,4 hPa 0,0 l/m 0 min 0 min 0 W/m 12,9 km/h (3 Bft) 95,74 %
21.03.2021 03:20 5,0 C 4,4 C 2,8 C 96 % 1023,3 hPa 0,0 l/m 0 min 0 min 0 W/m 12,9 km/h (3 Bft) 97,87 %
21.03.2021 03:22 5,0 C 4,4 C 2,8 C 96 % 1023,2 hPa 0,0 l/m 0 min 0 min 0 W/m 9,7 km/h (2 Bft) 100,00 %
21.03.2021 03:24 5,0 C 4,4 C 2,8 C 96 % 1023,3 hPa 0,0 l/m 0 min 0 min 0 W/m 6,4 km/h (2 Bft) 97,87 %
21.03.2021 03:26 5,0 C 4,4 C 2,8 C 96 % 1023,2 hPa 0,0 l/m 0 min 0 min 0 W/m 6,4 km/h (2 Bft) 97,83 %
21.03.2021 03:28 5,0 C 4,4 C 2,8 C 96 % 1023,0 hPa 0,0 l/m 0 min 0 min 0 W/m 6,4 km/h (2 Bft) 97,87 %
21.03.2021 03:30 5,0 C 4,4 C 2,8 C 96 % 1023,0 hPa 0,0 l/m 0 min 0 min 0 W/m 6,4 km/h (2 Bft) 100,00 %
21.03.2021 03:32 5,0 C 4,4 C 2,8 C 96 % 1023,2 hPa 0,0 l/m 0 min 0 min 0 W/m 9,7 km/h (2 Bft) 100,00 %
21.03.2021 03:34 5,0 C 4,4 C 2,8 C 96 % 1023,2 hPa 0,0 l/m 0 min 0 min 0 W/m 6,4 km/h (2 Bft) 100,00 %
21.03.2021 03:36 5,0 C 4,4 C 2,8 C 96 % 1023,3 hPa 0,0 l/m 0 min 0 min 0 W/m 6,4 km/h (2 Bft) 100,00 %
21.03.2021 03:38 5,0 C 4,4 C 2,8 C 96 % 1023,3 hPa 0,0 l/m 0 min 0 min 0 W/m 6,4 km/h (2 Bft) 100,00 %
21.03.2021 03:40 5,0 C 4,4 C 2,8 C 96 % 1023,3 hPa 0,0 l/m 0 min 0 min 0 W/m 6,4 km/h (2 Bft) 100,00 %
21.03.2021 03:42 5,0 C 4,4 C 2,8 C 96 % 1023,3 hPa 0,0 l/m 0 min 0 min 0 W/m 12,9 km/h (3 Bft) 100,00 %
21.03.2021 03:44 5,0 C 4,4 C 2,8 C 96 % 1023,3 hPa 0,0 l/m 0 min 0 min 0 W/m 12,9 km/h (3 Bft) 100,00 %
21.03.2021 03:46 5,0 C 4,4 C 2,8 C 96 % 1023,2 hPa 0,0 l/m 0 min 0 min 0 W/m 12,9 km/h (3 Bft) 97,87 %
21.03.2021 03:48 5,0 C 4,4 C 2,8 C 96 % 1023,1 hPa 0,0 l/m 0 min 0 min 0 W/m 6,4 km/h (2 Bft) 100,00 %
21.03.2021 03:50 5,0 C 4,4 C 2,8 C 96 % 1023,1 hPa 0,0 l/m 0 min 0 min 0 W/m 16,1 km/h (3 Bft) 100,00 %
21.03.2021 03:52 5,0 C 4,4 C 2,8 C 96 % 1023,1 hPa 0,0 l/m 0 min 0 min 0 W/m 12,9 km/h (3 Bft) 100,00 %
21.03.2021 03:54 5,0 C 4,4 C 2,8 C 96 % 1023,1 hPa 0,0 l/m 0 min 0 min 0 W/m 16,1 km/h (3 Bft) 100,00 %
21.03.2021 03:56 5,0 C 4,4 C 2,8 C 96 % 1023,0 hPa 0,0 l/m 0 min 0 min 0 W/m 9,7 km/h (2 Bft) 100,00 %
21.03.2021 03:58 5,0 C 4,4 C 2,8 C 96 % 1023,0 hPa 0,0 l/m 0 min 0 min 0 W/m 9,7 km/h (2 Bft) 97,87 %
21.03.2021 04:00 5,0 C 4,4 C 2,8 C 96 % 1023,0 hPa 0,0 l/m 0 min 0 min 0 W/m 6,4 km/h (2 Bft) 100,00 %
21.03.2021 04:02 5,0 C 4,4 C 2,8 C 96 % 1023,0 hPa 0,0 l/m 0 min 0 min 0 W/m 6,4 km/h (2 Bft) 92,86 %
21.03.2021 04:04 5,0 C 4,4 C 2,8 C 96 % 1023,0 hPa 0,0 l/m 0 min 0 min 0 W/m 6,4 km/h (2 Bft) 100,00 %
21.03.2021 04:06 5,0 C 4,4 C 2,8 C 96 % 1022,9 hPa 0,0 l/m 0 min 0 min 0 W/m 9,7 km/h (2 Bft) 56,52 %
21.03.2021 04:08 5,0 C 4,4 C 2,8 C 96 % 1022,9 hPa 0,0 l/m 0 min 0 min 0 W/m 6,4 km/h (2 Bft) 95,74 %
21.03.2021 04:10 5,0 C 4,4 C 2,8 C 96 % 1022,9 hPa 0,0 l/m 0 min 0 min 0 W/m 9,7 km/h (2 Bft) 100,00 %
21.03.2021 04:12 5,0 C 4,4 C 2,8 C 96 % 1022,9 hPa 0,0 l/m 0 min 0 min 0 W/m 9,7 km/h (2 Bft) 100,00 %
21.03.2021 04:14 5,0 C 4,4 C 2,8 C 96 % 1022,8 hPa 0,0 l/m 0 min 0 min 0 W/m 12,9 km/h (3 Bft) 100,00 %
21.03.2021 04:16 5,0 C 4,4 C 2,8 C 96 % 1022,8 hPa 0,0 l/m 0 min 0 min 0 W/m 9,7 km/h (2 Bft) 100,00 %
21.03.2021 04:18 5,0 C 4,4 C 2,8 C 96 % 1022,8 hPa 0,0 l/m 0 min 0 min 0 W/m 6,4 km/h (2 Bft) 100,00 %
21.03.2021 04:20 5,0 C 4,4 C 2,8 C 96 % 1022,8 hPa 0,0 l/m 0 min 0 min 0 W/m 6,4 km/h (2 Bft) 100,00 %
21.03.2021 04:22 5,0 C 4,4 C 2,8 C 96 % 1022,8 hPa 0,0 l/m 0 min 0 min 0 W/m 9,7 km/h (2 Bft) 100,00 %
21.03.2021 04:24 5,0 C 4,4 C 2,8 C 97 % 1022,8 hPa 0,0 l/m 0 min 0 min 0 W/m 12,9 km/h (3 Bft) 100,00 %
21.03.2021 04:26 5,0 C 4,4 C 2,8 C 97 % 1022,7 hPa 0,0 l/m 0 min 0 min 0 W/m 12,9 km/h (3 Bft) 100,00 %
21.03.2021 04:28 5,0 C 4,4 C 2,8 C 97 % 1022,8 hPa 0,0 l/m 0 min 0 min 0 W/m 9,7 km/h (2 Bft) 97,87 %
21.03.2021 04:30 5,0 C 4,4 C 2,8 C 97 % 1022,8 hPa 0,0 l/m 0 min 0 min 0 W/m 9,7 km/h (2 Bft) 100,00 %
21.03.2021 04:32 5,0 C 4,4 C 2,8 C 97 % 1022,8 hPa 0,0 l/m 0 min 0 min 0 W/m 12,9 km/h (3 Bft) 97,92 %
21.03.2021 04:34 5,0 C 4,4 C 2,8 C 96 % 1022,9 hPa 0,0 l/m 0 min 0 min 0 W/m 9,7 km/h (2 Bft) 100,00 %
21.03.2021 04:36 5,0 C 4,4 C 2,8 C 97 % 1022,8 hPa 0,0 l/m 0 min 0 min 0 W/m 6,4 km/h (2 Bft) 97,87 %
21.03.2021 04:38 5,0 C 4,4 C 2,8 C 96 % 1022,8 hPa 0,0 l/m 0 min 0 min 0 W/m 9,7 km/h (2 Bft) 100,00 %
21.03.2021 04:40 5,0 C 4,4 C 2,8 C 97 % 1022,8 hPa 0,0 l/m 0 min 0 min 0 W/m 12,9 km/h (3 Bft) 100,00 %
21.03.2021 04:42 5,0 C 4,4 C 2,8 C 97 % 1022,8 hPa 0,0 l/m 0 min 0 min 0 W/m 9,7 km/h (2 Bft) 100,00 %
21.03.2021 04:44 5,0 C 4,4 C 2,8 C 97 % 1022,9 hPa 0,0 l/m 0 min 0 min 0 W/m 9,7 km/h (2 Bft) 100,00 %
21.03.2021 04:46 5,0 C 4,4 C 2,8 C 96 % 1022,9 hPa 0,0 l/m 0 min 0 min 0 W/m 12,9 km/h (3 Bft) 100,00 %
21.03.2021 04:48 5,0 C 4,4 C 2,8 C 96 % 1022,9 hPa 0,0 l/m 0 min 0 min 0 W/m 12,9 km/h (3 Bft) 100,00 %
21.03.2021 04:50 5,0 C 4,4 C 2,8 C 97 % 1022,9 hPa 0,0 l/m 0 min 0 min 0 W/m 6,4 km/h (2 Bft) 100,00 %
21.03.2021 04:52 5,0 C 4,4 C 2,8 C 97 % 1022,9 hPa 0,0 l/m 0 min 0 min 0 W/m 16,1 km/h (3 Bft) 95,65 %
21.03.2021 04:54 5,0 C 4,4 C 2,8 C 97 % 1022,9 hPa 0,0 l/m 0 min 0 min 0 W/m 12,9 km/h (3 Bft) 100,00 %
21.03.2021 04:56 5,0 C 4,4 C 2,8 C 97 % 1023,0 hPa 0,0 l/m 0 min 0 min 0 W/m 12,9 km/h (3 Bft) 100,00 %
21.03.2021 04:58 5,0 C 4,4 C 2,8 C 97 % 1022,9 hPa 0,0 l/m 0 min 0 min 0 W/m 9,7 km/h (2 Bft) 97,87 %
21.03.2021 05:00 5,0 C 4,4 C 2,8 C 97 % 1022,9 hPa 0,0 l/m 0 min 0 min 0 W/m 9,7 km/h (2 Bft) 97,87 %
21.03.2021 05:02 5,0 C 4,4 C 2,8 C 97 % 1022,8 hPa 0,0 l/m 0 min 0 min 0 W/m 9,7 km/h (2 Bft) 100,00 %
21.03.2021 05:04 5,0 C 4,4 C 2,8 C 97 % 1022,8 hPa 0,0 l/m 0 min 0 min 0 W/m 12,9 km/h (3 Bft) 97,83 %
21.03.2021 05:06 5,0 C 4,4 C 2,8 C 97 % 1022,7 hPa 0,0 l/m 0 min 0 min 0 W/m 6,4 km/h (2 Bft) 97,87 %
21.03.2021 05:08 5,0 C 4,4 C 2,8 C 97 % 1022,7 hPa 0,0 l/m 0 min 0 min 0 W/m 12,9 km/h (3 Bft) 97,87 %
21.03.2021 05:10 5,0 C 4,4 C 2,8 C 97 % 1022,6 hPa 0,0 l/m 0 min 0 min 0 W/m 16,1 km/h (3 Bft) 95,74 %
21.03.2021 05:12 5,0 C 4,4 C 2,8 C 97 % 1022,7 hPa 0,0 l/m 0 min 0 min 0 W/m 12,9 km/h (3 Bft) 93,62 %
21.03.2021 05:14 5,0 C 4,4 C 2,8 C 97 % 1022,7 hPa 0,0 l/m 0 min 0 min 0 W/m 9,7 km/h (2 Bft) 93,62 %
21.03.2021 05:16 5,0 C 4,4 C 2,8 C 97 % 1022,6 hPa 0,0 l/m 0 min 0 min 0 W/m 12,9 km/h (3 Bft) 93,48 %
21.03.2021 05:18 5,0 C 4,4 C 2,8 C 97 % 1022,7 hPa 0,0 l/m 0 min 0 min 0 W/m 9,7 km/h (2 Bft) 95,74 %
21.03.2021 05:20 5,0 C 4,4 C 2,8 C 97 % 1022,6 hPa 0,0 l/m 0 min 0 min 0 W/m 9,7 km/h (2 Bft) 91,49 %
21.03.2021 05:22 5,0 C 4,4 C 2,8 C 97 % 1022,7 hPa 0,0 l/m 0 min 0 min 0 W/m 6,4 km/h (2 Bft) 91,49 %
21.03.2021 05:24 5,0 C 4,4 C 2,8 C 97 % 1022,7 hPa 0,0 l/m 0 min 0 min 0 W/m 12,9 km/h (3 Bft) 91,49 %
21.03.2021 05:26 5,0 C 4,4 C 2,8 C 97 % 1022,7 hPa 0,0 l/m 0 min 0 min 0 W/m 6,4 km/h (2 Bft) 85,11 %
21.03.2021 05:28 5,0 C 4,4 C 2,8 C 97 % 1022,7 hPa 0,0 l/m 0 min 0 min 0 W/m 6,4 km/h (2 Bft) 82,61 %
21.03.2021 05:30 5,0 C 4,4 C 2,8 C 97 % 1022,7 hPa 0,0 l/m 0 min 0 min 0 W/m 9,7 km/h (2 Bft) 87,23 %
21.03.2021 05:32 5,0 C 4,4 C 2,8 C 97 % 1022,6 hPa 0,0 l/m 0 min 0 min 0 W/m 6,4 km/h (2 Bft) 82,61 %
21.03.2021 05:34 5,0 C 4,4 C 2,8 C 97 % 1022,6 hPa 0,0 l/m 0 min 0 min 0 W/m 6,4 km/h (2 Bft) 70,21 %
21.03.2021 05:36 5,0 C 4,4 C 2,8 C 97 % 1022,6 hPa 0,0 l/m 0 min 0 min 0 W/m 9,7 km/h (2 Bft) 74,47 %
21.03.2021 05:38 5,0 C 4,4 C 2,8 C 97 % 1022,6 hPa 0,0 l/m 0 min 0 min 0 W/m 9,7 km/h (2 Bft) 61,70 %
21.03.2021 05:40 5,0 C 4,4 C 2,8 C 97 % 1022,6 hPa 0,0 l/m 0 min 0 min 0 W/m 12,9 km/h (3 Bft) 76,09 %
21.03.2021 05:42 5,1 C 4,4 C 2,8 C 97 % 1022,7 hPa 0,0 l/m 0 min 0 min 0 W/m 12,9 km/h (3 Bft) 89,36 %
21.03.2021 05:44 5,0 C 4,4 C 2,8 C 97 % 1022,7 hPa 0,0 l/m 0 min 0 min 0 W/m 12,9 km/h (3 Bft) 93,62 %
21.03.2021 05:46 5,0 C 4,4 C 2,8 C 97 % 1022,7 hPa 0,0 l/m 0 min 0 min 0 W/m 6,4 km/h (2 Bft) 93,62 %
21.03.2021 05:48 5,0 C 4,4 C 2,8 C 97 % 1022,6 hPa 0,0 l/m 0 min 0 min 0 W/m 16,1 km/h (3 Bft) 93,62 %
21.03.2021 05:50 5,0 C 4,4 C 2,8 C 97 % 1022,6 hPa 0,0 l/m 0 min 2 min 0 W/m 9,7 km/h (2 Bft) 93,62 %
21.03.2021 05:52 5,1 C 4,4 C 2,8 C 97 % 1022,7 hPa 0,0 l/m 0 min 2 min 0 W/m 9,7 km/h (2 Bft) 91,30 %
21.03.2021 05:54 5,1 C 4,4 C 2,8 C 97 % 1022,7 hPa 0,0 l/m 0 min 2 min 0 W/m 9,7 km/h (2 Bft) 95,74 %
21.03.2021 05:56 5,1 C 4,4 C 2,8 C 97 % 1022,6 hPa 0,0 l/m 0 min 2 min 0 W/m 12,9 km/h (3 Bft) 95,74 %
21.03.2021 05:58 5,1 C 4,4 C 2,8 C 97 % 1022,6 hPa 0,0 l/m 0 min 2 min 0 W/m 19,3 km/h (3 Bft) 93,62 %
21.03.2021 06:00 5,1 C 4,4 C 2,8 C 97 % 1022,6 hPa 0,0 l/m 0 min 2 min 0 W/m 9,7 km/h (2 Bft) 89,36 %
21.03.2021 06:02 5,1 C 4,4 C 2,8 C 97 % 1022,5 hPa 0,0 l/m 0 min 2 min 0 W/m 16,1 km/h (3 Bft) 93,62 %
21.03.2021 06:04 5,1 C 4,4 C 2,8 C 97 % 1022,5 hPa 0,0 l/m 0 min 2 min 0 W/m 9,7 km/h (2 Bft) 95,74 %
21.03.2021 06:08 5,1 C 4,4 C 2,8 C 97 % 1022,5 hPa 0,2 l/m 0 min 0 min 0 W/m 12,9 km/h (3 Bft) 93,62 %
21.03.2021 06:10 5,1 C 4,4 C 2,8 C 97 % 1022,5 hPa 0,0 l/m 0 min 0 min 0 W/m 3,2 km/h (1 Bft) 85,11 %
21.03.2021 06:12 5,1 C 4,4 C 2,8 C 97 % 1022,5 hPa 0,0 l/m 0 min 0 min 0 W/m 6,4 km/h (2 Bft) 87,23 %
21.03.2021 06:14 5,1 C 4,4 C 2,8 C 97 % 1022,5 hPa 0,0 l/m 0 min 0 min 0 W/m 16,1 km/h (3 Bft) 76,60 %
21.03.2021 06:16 5,1 C 4,4 C 2,8 C 97 % 1022,5 hPa 0,0 l/m 0 min 0 min 0 W/m 9,7 km/h (2 Bft) 80,43 %
21.03.2021 06:18 5,1 C 4,4 C 2,8 C 97 % 1022,5 hPa 0,0 l/m 0 min 0 min 0 W/m 16,1 km/h (3 Bft) 93,62 %
21.03.2021 06:20 5,1 C 4,4 C 2,8 C 97 % 1022,6 hPa 0,0 l/m 0 min 0 min 0 W/m 9,7 km/h (2 Bft) 89,36 %
21.03.2021 06:22 5,1 C 4,4 C 2,8 C 98 % 1022,5 hPa 0,0 l/m 0 min 0 min 0 W/m 12,9 km/h (3 Bft) 47,06 %
21.03.2021 06:24 5,1 C 4,4 C 2,8 C 98 % 1022,5 hPa 0,0 l/m 0 min 0 min 0 W/m 6,4 km/h (2 Bft) 97,87 %
21.03.2021 06:26 5,1 C 4,4 C 2,8 C 98 % 1022,5 hPa 0,0 l/m 0 min 0 min 0 W/m 9,7 km/h (2 Bft) 95,65 %
21.03.2021 06:28 5,1 C 4,4 C 2,8 C 98 % 1022,5 hPa 0,0 l/m 0 min 0 min 0 W/m 9,7 km/h (2 Bft) 95,74 %
21.03.2021 06:30 5,1 C 4,4 C 3,4 C 98 % 1022,6 hPa 0,0 l/m 0 min 0 min 0 W/m 12,9 km/h (3 Bft) 95,74 %
21.03.2021 06:32 5,1 C 4,4 C 3,4 C 98 % 1022,5 hPa 0,0 l/m 0 min 0 min 0 W/m 16,1 km/h (3 Bft) 97,87 %
21.03.2021 06:34 5,1 C 4,4 C 3,4 C 98 % 1022,5 hPa 0,0 l/m 0 min 0 min 0 W/m 6,4 km/h (2 Bft) 95,74 %
21.03.2021 06:36 5,1 C 4,4 C 3,4 C 98 % 1022,5 hPa 0,0 l/m 0 min 0 min 0 W/m 12,9 km/h (3 Bft) 97,87 %
21.03.2021 06:38 5,1 C 4,4 C 3,4 C 98 % 1022,5 hPa 0,0 l/m 0 min 0 min 0 W/m 12,9 km/h (3 Bft) 97,83 %
21.03.2021 06:40 5,1 C 4,4 C 3,4 C 98 % 1022,4 hPa 0,0 l/m 0 min 0 min 0 W/m 6,4 km/h (2 Bft) 97,87 %
21.03.2021 06:42 5,2 C 4,4 C 3,4 C 98 % 1022,4 hPa 0,0 l/m 0 min 0 min 0 W/m 9,7 km/h (2 Bft) 97,87 %
21.03.2021 06:44 5,2 C 4,4 C 3,4 C 98 % 1022,4 hPa 0,0 l/m 0 min 0 min 0 W/m 9,7 km/h (2 Bft) 97,87 %
21.03.2021 06:46 5,2 C 4,4 C 3,4 C 98 % 1022,4 hPa 0,0 l/m 0 min 0 min 0 W/m 6,4 km/h (2 Bft) 97,87 %
21.03.2021 06:48 5,2 C 4,4 C 3,4 C 98 % 1022,4 hPa 0,0 l/m 0 min 0 min 0 W/m 9,7 km/h (2 Bft) 100,00 %
21.03.2021 06:50 5,2 C 4,4 C 3,4 C 98 % 1022,4 hPa 0,0 l/m 0 min 0 min 0 W/m 16,1 km/h (3 Bft) 100,00 %
21.03.2021 06:52 5,2 C 4,4 C 3,4 C 98 % 1022,4 hPa 0,0 l/m 0 min 0 min 0 W/m 12,9 km/h (3 Bft) 97,87 %
21.03.2021 06:54 5,2 C 4,4 C 3,4 C 98 % 1022,4 hPa 0,0 l/m 0 min 0 min 0 W/m 6,4 km/h (2 Bft) 100,00 %
21.03.2021 06:56 5,3 C 4,4 C 3,4 C 98 % 1022,4 hPa 0,0 l/m 0 min 0 min 0 W/m 9,7 km/h (2 Bft) 100,00 %
21.03.2021 06:58 5,3 C 4,4 C 3,4 C 98 % 1022,4 hPa 0,0 l/m 0 min 0 min 0 W/m 12,9 km/h (3 Bft) 97,87 %
21.03.2021 07:00 5,3 C 4,4 C 3,4 C 98 % 1022,2 hPa 0,0 l/m 0 min 0 min 0 W/m 6,4 km/h (2 Bft) 97,87 %
21.03.2021 07:02 5,3 C 4,4 C 3,4 C 98 % 1022,2 hPa 0,0 l/m 0 min 0 min 0 W/m 9,7 km/h (2 Bft) 97,83 %
21.03.2021 07:04 5,3 C 4,4 C 3,4 C 98 % 1022,2 hPa 0,0 l/m 0 min 0 min 3 W/m 9,7 km/h (2 Bft) 100,00 %
21.03.2021 07:06 5,3 C 5,0 C 3,4 C 98 % 1022,5 hPa 0,0 l/m 0 min 0 min 5 W/m 12,9 km/h (3 Bft) 95,74 %
21.03.2021 07:08 5,3 C 5,0 C 3,4 C 98 % 1022,5 hPa 0,0 l/m 0 min 0 min 6 W/m 6,4 km/h (2 Bft) 72,34 %
21.03.2021 07:10 5,3 C 5,0 C 3,4 C 98 % 1022,4 hPa 0,0 l/m 0 min 0 min 9 W/m 9,7 km/h (2 Bft) 78,72 %
21.03.2021 07:12 5,3 C 5,0 C 3,4 C 98 % 1022,5 hPa 0,0 l/m 0 min 0 min 12 W/m 12,9 km/h (3 Bft) 82,98 %
21.03.2021 07:14 5,3 C 5,0 C 3,4 C 98 % 1022,5 hPa 0,0 l/m 0 min 0 min 8 W/m 9,7 km/h (2 Bft) 78,72 %
21.03.2021 07:16 5,3 C 5,0 C 3,4 C 98 % 1022,5 hPa 0,0 l/m 0 min 0 min 8 W/m 12,9 km/h (3 Bft) 86,96 %
21.03.2021 07:18 5,3 C 5,0 C 3,4 C 98 % 1022,5 hPa 0,0 l/m 0 min 0 min 9 W/m 12,9 km/h (3 Bft) 100,00 %
21.03.2021 07:20 5,3 C 5,0 C 3,4 C 98 % 1022,6 hPa 0,0 l/m 0 min 0 min 11 W/m 16,1 km/h (3 Bft) 93,62 %
21.03.2021 07:22 5,3 C 5,0 C 3,4 C 98 % 1022,6 hPa 0,0 l/m 0 min 0 min 19 W/m 9,7 km/h (2 Bft) 100,00 %
21.03.2021 07:24 5,4 C 5,0 C 3,4 C 98 % 1022,6 hPa 0,0 l/m 0 min 0 min 24 W/m 12,9 km/h (3 Bft) 95,74 %
21.03.2021 07:26 5,4 C 5,0 C 3,4 C 98 % 1022,7 hPa 0,0 l/m 0 min 0 min 31 W/m 19,3 km/h (3 Bft) 100,00 %
21.03.2021 07:28 5,4 C 5,0 C 3,4 C 98 % 1022,7 hPa 0,0 l/m 0 min 0 min 35 W/m 16,1 km/h (3 Bft) 97,87 %
21.03.2021 07:30 5,4 C 5,0 C 3,4 C 98 % 1022,6 hPa 0,0 l/m 0 min 0 min 35 W/m 12,9 km/h (3 Bft) 100,00 %
21.03.2021 07:32 5,4 C 5,0 C 3,4 C 98 % 1022,6 hPa 0,0 l/m 0 min 0 min 40 W/m 9,7 km/h (2 Bft) 100,00 %
21.03.2021 07:34 5,4 C 5,0 C 3,4 C 98 % 1022,5 hPa 0,0 l/m 0 min 0 min 44 W/m 16,1 km/h (3 Bft) 100,00 %
21.03.2021 07:36 5,4 C 5,6 C 3,9 C 98 % 1022,5 hPa 0,0 l/m 0 min 0 min 46 W/m 12,9 km/h (3 Bft) 97,87 %
21.03.2021 07:38 5,4 C 5,6 C 3,9 C 98 % 1022,5 hPa 0,0 l/m 0 min 0 min 53 W/m 16,1 km/h (3 Bft) 100,00 %
21.03.2021 07:40 5,5 C 5,6 C 3,9 C 98 % 1022,4 hPa 0,0 l/m 0 min 0 min 53 W/m 16,1 km/h (3 Bft) 97,87 %
21.03.2021 07:42 5,5 C 5,6 C 3,9 C 98 % 1022,4 hPa 0,0 l/m 0 min 0 min 54 W/m 9,7 km/h (2 Bft) 97,87 %
21.03.2021 07:44 5,5 C 5,6 C 3,9 C 98 % 1022,6 hPa 0,0 l/m 0 min 0 min 56 W/m 19,3 km/h (3 Bft) 97,87 %
21.03.2021 07:46 5,5 C 5,6 C 3,9 C 98 % 1022,5 hPa 0,0 l/m 0 min 0 min 53 W/m 12,9 km/h (3 Bft) 97,87 %
21.03.2021 07:48 5,5 C 5,6 C 3,9 C 98 % 1022,5 hPa 0,0 l/m 0 min 0 min 46 W/m 16,1 km/h (3 Bft) 97,87 %
21.03.2021 07:50 5,5 C 5,6 C 3,9 C 98 % 1022,5 hPa 0,0 l/m 0 min 0 min 49 W/m 12,9 km/h (3 Bft) 97,83 %
21.03.2021 07:52 5,5 C 5,6 C 3,9 C 98 % 1022,5 hPa 0,0 l/m 0 min 0 min 56 W/m 12,9 km/h (3 Bft) 97,87 %
21.03.2021 07:54 5,5 C 5,6 C 3,9 C 98 % 1022,5 hPa 0,0 l/m 0 min 0 min 58 W/m 19,3 km/h (3 Bft) 97,87 %
21.03.2021 07:56 5,6 C 5,6 C 3,9 C 98 % 1022,6 hPa 0,0 l/m 0 min 0 min 52 W/m 9,7 km/h (2 Bft) 97,87 %
21.03.2021 07:58 5,6 C 5,6 C 3,9 C 98 % 1022,6 hPa 0,0 l/m 0 min 0 min 52 W/m 12,9 km/h (3 Bft) 97,87 %
21.03.2021 08:00 5,6 C 5,6 C 3,9 C 98 % 1022,6 hPa 0,0 l/m 0 min 0 min 58 W/m 9,7 km/h (2 Bft) 95,74 %
21.03.2021 08:02 5,6 C 5,6 C 3,9 C 98 % 1022,6 hPa 0,0 l/m 0 min 0 min 60 W/m 9,7 km/h (2 Bft) 97,87 %
21.03.2021 08:04 5,6 C 5,6 C 3,9 C 98 % 1022,6 hPa 0,0 l/m 0 min 0 min 54 W/m 9,7 km/h (2 Bft) 97,92 %
21.03.2021 08:06 5,6 C 5,6 C 3,9 C 98 % 1022,7 hPa 0,0 l/m 0 min 0 min 47 W/m 12,9 km/h (3 Bft) 93,62 %
21.03.2021 08:08 5,6 C 5,6 C 3,9 C 98 % 1022,7 hPa 0,0 l/m 0 min 0 min 47 W/m 12,9 km/h (3 Bft) 97,87 %
21.03.2021 08:10 5,6 C 5,6 C 3,9 C 98 % 1022,7 hPa 0,0 l/m 0 min 0 min 45 W/m 16,1 km/h (3 Bft) 97,87 %
21.03.2021 08:12 5,6 C 5,6 C 3,9 C 98 % 1022,7 hPa 0,0 l/m 0 min 0 min 45 W/m 16,1 km/h (3 Bft) 95,74 %
21.03.2021 08:14 5,6 C 5,6 C 3,9 C 98 % 1022,8 hPa 0,0 l/m 0 min 0 min 47 W/m 19,3 km/h (3 Bft) 97,83 %
21.03.2021 08:16 5,6 C 5,6 C 3,9 C 98 % 1022,8 hPa 0,0 l/m 0 min 0 min 51 W/m 16,1 km/h (3 Bft) 95,74 %
21.03.2021 08:18 5,7 C 5,6 C 3,9 C 98 % 1022,7 hPa 0,0 l/m 0 min 0 min 55 W/m 6,4 km/h (2 Bft) 97,87 %
21.03.2021 08:20 5,7 C 5,6 C 3,9 C 98 % 1022,6 hPa 0,0 l/m 0 min 0 min 64 W/m 9,7 km/h (2 Bft) 97,87 %
21.03.2021 08:22 5,7 C 5,6 C 3,9 C 98 % 1022,7 hPa 0,0 l/m 0 min 0 min 74 W/m 9,7 km/h (2 Bft) 97,87 %
21.03.2021 08:24 5,7 C 5,6 C 3,9 C 98 % 1022,7 hPa 0,0 l/m 0 min 0 min 79 W/m 12,9 km/h (3 Bft) 97,87 %
21.03.2021 08:26 5,8 C 6,1 C 3,9 C 98 % 1022,7 hPa 0,0 l/m 0 min 0 min 76 W/m 12,9 km/h (3 Bft) 95,65 %
21.03.2021 08:28 5,8 C 6,1 C 3,9 C 98 % 1022,8 hPa 0,0 l/m 0 min 0 min 71 W/m 12,9 km/h (3 Bft) 97,87 %
21.03.2021 08:30 5,8 C 6,1 C 3,9 C 98 % 1022,7 hPa 0,0 l/m 0 min 0 min 78 W/m 12,9 km/h (3 Bft) 97,87 %
21.03.2021 08:32 5,8 C 6,1 C 3,9 C 98 % 1022,6 hPa 0,0 l/m 0 min 2 min 98 W/m 12,9 km/h (3 Bft) 97,87 %
21.03.2021 08:34 5,9 C 6,1 C 4,5 C 98 % 1022,6 hPa 0,0 l/m 0 min 0 min 118 W/m 12,9 km/h (3 Bft) 97,87 %
21.03.2021 08:36 5,9 C 6,1 C 4,5 C 98 % 1022,6 hPa 0,0 l/m 0 min 0 min 117 W/m 19,3 km/h (3 Bft) 97,83 %
21.03.2021 08:38 5,9 C 6,1 C 4,5 C 98 % 1022,7 hPa 0,0 l/m 0 min 0 min 115 W/m 19,3 km/h (3 Bft) 97,87 %
21.03.2021 08:40 5,9 C 6,1 C 4,5 C 98 % 1022,7 hPa 0,0 l/m 0 min 0 min 116 W/m 12,9 km/h (3 Bft) 97,87 %
21.03.2021 08:42 6,0 C 6,1 C 4,5 C 98 % 1022,8 hPa 0,0 l/m 0 min 0 min 108 W/m 12,9 km/h (3 Bft) 97,87 %
21.03.2021 08:44 6,0 C 6,1 C 4,5 C 98 % 1022,8 hPa 0,0 l/m 0 min 0 min 91 W/m 19,3 km/h (3 Bft) 95,74 %
21.03.2021 08:46 6,0 C 6,1 C 4,5 C 98 % 1022,8 hPa 0,0 l/m 0 min 0 min 64 W/m 25,7 km/h (4 Bft) 95,74 %
21.03.2021 08:48 6,0 C 6,1 C 4,5 C 98 % 1022,8 hPa 0,0 l/m 0 min 0 min 46 W/m 16,1 km/h (3 Bft) 95,65 %
21.03.2021 08:50 6,0 C 6,1 C 4,5 C 98 % 1022,9 hPa 0,0 l/m 0 min 0 min 36 W/m 12,9 km/h (3 Bft) 97,87 %
21.03.2021 08:52 6,0 C 6,1 C 4,5 C 97 % 1022,9 hPa 0,0 l/m 0 min 0 min 31 W/m 6,4 km/h (2 Bft) 97,87 %
21.03.2021 08:54 6,0 C 6,1 C 4,5 C 97 % 1023,0 hPa 0,0 l/m 0 min 0 min 33 W/m 12,9 km/h (3 Bft) 97,87 %
21.03.2021 08:56 6,0 C 6,1 C 4,5 C 97 % 1023,0 hPa 0,0 l/m 0 min 0 min 46 W/m 16,1 km/h (3 Bft) 97,87 %
21.03.2021 08:58 6,0 C 5,6 C 3,9 C 97 % 1023,0 hPa 0,0 l/m 0 min 0 min 51 W/m 29,0 km/h (5 Bft) 97,87 %
21.03.2021 09:00 6,0 C 6,1 C 3,9 C 97 % 1023,0 hPa 0,0 l/m 0 min 0 min 64 W/m 25,7 km/h (4 Bft) 93,48 %
21.03.2021 09:02 6,0 C 6,1 C 4,5 C 97 % 1023,0 hPa 0,0 l/m 0 min 0 min 83 W/m 25,7 km/h (4 Bft) 97,87 %
21.03.2021 09:04 6,0 C 6,1 C 4,5 C 97 % 1022,9 hPa 0,0 l/m 0 min 0 min 117 W/m 29,0 km/h (5 Bft) 97,87 %
21.03.2021 09:06 6,0 C 6,1 C 4,5 C 97 % 1023,0 hPa 0,0 l/m 0 min 0 min 144 W/m 16,1 km/h (3 Bft) 97,87 %
21.03.2021 09:08 6,0 C 6,1 C 4,5 C 97 % 1022,9 hPa 0,0 l/m 0 min 0 min 143 W/m 22,5 km/h (4 Bft) 97,87 %
21.03.2021 09:10 6,0 C 6,7 C 4,5 C 97 % 1023,0 hPa 0,0 l/m 0 min 0 min 133 W/m 41,8 km/h (6 Bft) 100,00 %
21.03.2021 09:12 6,0 C 6,7 C 4,5 C 97 % 1023,0 hPa 0,0 l/m 0 min 0 min 156 W/m 25,7 km/h (4 Bft) 100,00 %
21.03.2021 09:14 6,1 C 6,7 C 5,0 C 96 % 1023,1 hPa 0,0 l/m 0 min 0 min 191 W/m 29,0 km/h (5 Bft) 100,00 %
21.03.2021 09:16 6,1 C 6,7 C 5,0 C 96 % 1023,0 hPa 0,0 l/m 0 min 0 min 154 W/m 22,5 km/h (4 Bft) 100,00 %
21.03.2021 09:18 6,1 C 7,2 C 5,0 C 96 % 1023,0 hPa 0,0 l/m 0 min 0 min 150 W/m 19,3 km/h (3 Bft) 100,00 %
21.03.2021 09:20 6,2 C 7,2 C 5,0 C 96 % 1023,0 hPa 0,0 l/m 0 min 0 min 127 W/m 25,7 km/h (4 Bft) 100,00 %
21.03.2021 09:22 6,3 C 6,7 C 5,0 C 96 % 1022,9 hPa 0,0 l/m 0 min 0 min 106 W/m 16,1 km/h (3 Bft) 100,00 %
21.03.2021 09:24 6,3 C 6,7 C 5,0 C 95 % 1022,9 hPa 0,0 l/m 0 min 0 min 71 W/m 16,1 km/h (3 Bft) 100,00 %
21.03.2021 09:26 6,3 C 6,7 C 5,0 C 95 % 1022,9 hPa 0,0 l/m 0 min 0 min 54 W/m 29,0 km/h (5 Bft) 100,00 %
21.03.2021 09:28 6,3 C 6,7 C 4,5 C 95 % 1022,9 hPa 0,0 l/m 0 min 0 min 53 W/m 22,5 km/h (4 Bft) 100,00 %
21.03.2021 09:30 6,3 C 6,1 C 4,5 C 95 % 1023,0 hPa 0,0 l/m 0 min 0 min 54 W/m 25,7 km/h (4 Bft) 100,00 %
21.03.2021 09:32 6,3 C 6,1 C 4,5 C 95 % 1023,0 hPa 0,0 l/m 0 min 0 min 72 W/m 32,2 km/h (5 Bft) 100,00 %
21.03.2021 09:34 6,3 C 6,1 C 4,5 C 94 % 1023,0 hPa 0,0 l/m 0 min 0 min 138 W/m 29,0 km/h (5 Bft) 100,00 %
21.03.2021 09:36 6,4 C 6,7 C 5,0 C 94 % 1023,1 hPa 0,0 l/m 0 min 0 min 189 W/m 19,3 km/h (3 Bft) 100,00 %
21.03.2021 09:38 6,4 C 6,7 C 5,0 C 94 % 1023,0 hPa 0,0 l/m 2 min 0 min 227 W/m 29,0 km/h (5 Bft) 100,00 %
21.03.2021 09:40 6,4 C 7,2 C 5,0 C 94 % 1022,9 hPa 0,0 l/m 0 min 0 min 171 W/m 32,2 km/h (5 Bft) 100,00 %
21.03.2021 09:42 6,4 C 7,2 C 5,0 C 94 % 1023,1 hPa 0,0 l/m 0 min 0 min 209 W/m 16,1 km/h (3 Bft) 100,00 %
21.03.2021 09:44 6,5 C 7,2 C 5,6 C 95 % 1023,1 hPa 0,0 l/m 2 min 0 min 287 W/m 19,3 km/h (3 Bft) 100,00 %
21.03.2021 09:46 6,5 C 7,8 C 6,1 C 95 % 1023,1 hPa 0,0 l/m 2 min 0 min 306 W/m 25,7 km/h (4 Bft) 100,00 %
21.03.2021 09:48 6,6 C 7,8 C 6,1 C 95 % 1023,2 hPa 0,0 l/m 2 min 0 min 288 W/m 25,7 km/h (4 Bft) 97,83 %
21.03.2021 09:50 6,6 C 8,3 C 6,1 C 94 % 1023,2 hPa 0,0 l/m 2 min 0 min 299 W/m 25,7 km/h (4 Bft) 100,00 %
21.03.2021 09:52 6,8 C 8,3 C 6,1 C 94 % 1023,2 hPa 0,0 l/m 2 min 0 min 318 W/m 19,3 km/h (3 Bft) 97,87 %
21.03.2021 09:54 6,8 C 7,8 C 6,1 C 94 % 1023,2 hPa 0,0 l/m 2 min 0 min 268 W/m 32,2 km/h (5 Bft) 100,00 %
21.03.2021 09:56 6,8 C 7,8 C 6,1 C 94 % 1023,3 hPa 0,0 l/m 0 min 0 min 216 W/m 19,3 km/h (3 Bft) 100,00 %
21.03.2021 09:58 6,8 C 7,8 C 6,1 C 93 % 1023,3 hPa 0,0 l/m 0 min 0 min 177 W/m 19,3 km/h (3 Bft) 100,00 %
21.03.2021 10:00 6,9 C 7,2 C 6,1 C 93 % 1023,3 hPa 0,0 l/m 0 min 0 min 158 W/m 32,2 km/h (5 Bft) 100,00 %
21.03.2021 10:02 6,9 C 7,2 C 5,6 C 93 % 1023,4 hPa 0,0 l/m 0 min 0 min 149 W/m 25,7 km/h (4 Bft) 100,00 %
21.03.2021 10:04 6,9 C 7,2 C 5,6 C 93 % 1023,3 hPa 0,0 l/m 0 min 0 min 148 W/m 25,7 km/h (4 Bft) 97,87 %
21.03.2021 10:06 6,9 C 7,2 C 5,6 C 93 % 1023,3 hPa 0,0 l/m 0 min 0 min 162 W/m 29,0 km/h (5 Bft) 100,00 %
21.03.2021 10:08 6,9 C 7,2 C 5,6 C 92 % 1023,3 hPa 0,0 l/m 0 min 0 min 177 W/m 19,3 km/h (3 Bft) 98,11 %
21.03.2021 10:10 6,9 C 7,2 C 5,6 C 92 % 1023,2 hPa 0,0 l/m 0 min 0 min 187 W/m 29,0 km/h (5 Bft) 100,00 %
21.03.2021 10:12 6,9 C 7,2 C 5,6 C 92 % 1023,2 hPa 0,0 l/m 0 min 0 min 188 W/m 29,0 km/h (5 Bft) 100,00 %
21.03.2021 10:14 6,9 C 7,2 C 5,6 C 92 % 1023,2 hPa 0,0 l/m 0 min 0 min 191 W/m 29,0 km/h (5 Bft) 97,87 %
21.03.2021 10:16 6,9 C 7,2 C 6,1 C 91 % 1023,2 hPa 0,0 l/m 0 min 0 min 191 W/m 29,0 km/h (5 Bft) 100,00 %
21.03.2021 10:18 6,8 C 7,2 C 5,6 C 91 % 1023,1 hPa 0,0 l/m 0 min 0 min 186 W/m 41,8 km/h (6 Bft) 97,87 %
21.03.2021 10:20 6,8 C 7,2 C 5,6 C 90 % 1023,2 hPa 0,0 l/m 0 min 0 min 175 W/m 29,0 km/h (5 Bft) 100,00 %
21.03.2021 10:22 6,8 C 7,2 C 5,6 C 89 % 1023,2 hPa 0,0 l/m 0 min 0 min 180 W/m 22,5 km/h (4 Bft) 95,74 %
21.03.2021 10:24 6,8 C 7,8 C 6,1 C 88 % 1023,2 hPa 0,0 l/m 0 min 0 min 184 W/m 12,9 km/h (3 Bft) 100,00 %
21.03.2021 10:26 6,9 C 7,2 C 6,1 C 88 % 1023,2 hPa 0,0 l/m 0 min 0 min 159 W/m 29,0 km/h (5 Bft) 97,87 %
21.03.2021 10:28 6,9 C 7,2 C 5,6 C 87 % 1023,2 hPa 0,0 l/m 0 min 0 min 121 W/m 25,7 km/h (4 Bft) 100,00 %
21.03.2021 10:30 7,0 C 7,2 C 5,6 C 87 % 1023,2 hPa 0,0 l/m 0 min 0 min 148 W/m 22,5 km/h (4 Bft) 97,87 %
21.03.2021 10:32 7,0 C 7,2 C 5,6 C 87 % 1023,3 hPa 0,0 l/m 0 min 0 min 162 W/m 19,3 km/h (3 Bft) 95,74 %
21.03.2021 10:34 7,0 C 7,2 C 5,6 C 87 % 1023,3 hPa 0,0 l/m 0 min 0 min 143 W/m 19,3 km/h (3 Bft) 97,87 %
21.03.2021 10:36 7,0 C 7,2 C 5,6 C 86 % 1023,3 hPa 0,0 l/m 0 min 0 min 134 W/m 22,5 km/h (4 Bft) 93,48 %
21.03.2021 10:38 7,0 C 7,2 C 5,6 C 86 % 1023,2 hPa 0,0 l/m 0 min 0 min 128 W/m 22,5 km/h (4 Bft) 93,62 %
21.03.2021 10:40 7,0 C 7,2 C 5,6 C 85 % 1023,3 hPa 0,0 l/m 0 min 0 min 128 W/m 22,5 km/h (4 Bft) 95,74 %
21.03.2021 10:42 7,0 C 7,2 C 5,6 C 85 % 1023,2 hPa 0,0 l/m 0 min 0 min 135 W/m 22,5 km/h (4 Bft) 95,74 %
21.03.2021 10:44 7,0 C 7,2 C 5,6 C 85 % 1023,2 hPa 0,0 l/m 0 min 0 min 144 W/m 22,5 km/h (4 Bft) 95,74 %
21.03.2021 10:46 7,0 C 7,2 C 5,6 C 85 % 1023,3 hPa 0,0 l/m 0 min 0 min 132 W/m 25,7 km/h (4 Bft) 95,65 %
21.03.2021 10:48 7,0 C 7,2 C 5,6 C 85 % 1023,3 hPa 0,0 l/m 0 min 0 min 123 W/m 29,0 km/h (5 Bft) 93,62 %
21.03.2021 10:50 6,9 C 6,7 C 5,6 C 85 % 1023,3 hPa 0,0 l/m 0 min 0 min 122 W/m 35,4 km/h (5 Bft) 97,87 %
21.03.2021 10:52 6,9 C 6,7 C 5,0 C 85 % 1023,3 hPa 0,0 l/m 0 min 0 min 125 W/m 25,7 km/h (4 Bft) 95,74 %
21.03.2021 10:54 6,9 C 6,7 C 5,0 C 85 % 1023,3 hPa 0,0 l/m 0 min 0 min 130 W/m 19,3 km/h (3 Bft) 95,74 %
21.03.2021 10:56 6,9 C 7,2 C 5,6 C 85 % 1023,3 hPa 0,0 l/m 0 min 0 min 146 W/m 19,3 km/h (3 Bft) 95,74 %
21.03.2021 10:58 6,9 C 7,2 C 5,6 C 86 % 1023,4 hPa 0,0 l/m 0 min 0 min 131 W/m 22,5 km/h (4 Bft) 95,24 %
21.03.2021 11:00 6,9 C 7,2 C 5,6 C 86 % 1023,3 hPa 0,0 l/m 0 min 0 min 116 W/m 25,7 km/h (4 Bft) 95,65 %
21.03.2021 11:02 6,9 C 7,2 C 5,6 C 86 % 1023,3 hPa 0,0 l/m 0 min 0 min 136 W/m 29,0 km/h (5 Bft) 93,62 %
21.03.2021 11:04 6,9 C 7,2 C 5,6 C 86 % 1023,3 hPa 0,0 l/m 0 min 0 min 186 W/m 22,5 km/h (4 Bft) 95,74 %
21.03.2021 11:06 7,0 C 7,2 C 5,6 C 86 % 1023,3 hPa 0,0 l/m 0 min 0 min 184 W/m 25,7 km/h (4 Bft) 93,62 %
21.03.2021 11:08 7,0 C 7,2 C 5,6 C 86 % 1023,2 hPa 0,0 l/m 0 min 0 min 175 W/m 19,3 km/h (3 Bft) 95,74 %
21.03.2021 11:10 7,0 C 7,8 C 5,6 C 85 % 1023,2 hPa 0,0 l/m 0 min 0 min 185 W/m 19,3 km/h (3 Bft) 95,74 %
21.03.2021 11:12 7,0 C 7,2 C 5,6 C 85 % 1023,2 hPa 0,0 l/m 0 min 0 min 180 W/m 19,3 km/h (3 Bft) 91,30 %
21.03.2021 11:14 7,0 C 7,2 C 5,6 C 85 % 1023,3 hPa 0,0 l/m 0 min 0 min 145 W/m 19,3 km/h (3 Bft) 91,49 %
21.03.2021 11:16 7,0 C 7,2 C 5,6 C 85 % 1023,3 hPa 0,0 l/m 0 min 0 min 111 W/m 35,4 km/h (5 Bft) 93,62 %
21.03.2021 11:18 7,1 C 7,2 C 5,6 C 84 % 1023,3 hPa 0,0 l/m 0 min 0 min 98 W/m 22,5 km/h (4 Bft) 93,62 %
21.03.2021 11:20 7,1 C 7,2 C 5,6 C 84 % 1023,4 hPa 0,0 l/m 0 min 0 min 103 W/m 19,3 km/h (3 Bft) 93,62 %
21.03.2021 11:22 7,1 C 7,2 C 5,6 C 84 % 1023,4 hPa 0,0 l/m 0 min 0 min 128 W/m 22,5 km/h (4 Bft) 91,49 %
21.03.2021 11:24 7,1 C 7,2 C 5,6 C 84 % 1023,3 hPa 0,0 l/m 0 min 0 min 126 W/m 29,0 km/h (5 Bft) 93,48 %
21.03.2021 11:26 7,0 C 7,2 C 5,6 C 84 % 1023,3 hPa 0,0 l/m 0 min 0 min 126 W/m 29,0 km/h (5 Bft) 95,74 %
21.03.2021 11:28 7,0 C 7,2 C 5,6 C 84 % 1023,3 hPa 0,0 l/m 0 min 0 min 139 W/m 16,1 km/h (3 Bft) 95,74 %
21.03.2021 11:30 7,0 C 7,2 C 5,6 C 83 % 1023,3 hPa 0,0 l/m 0 min 0 min 158 W/m 25,7 km/h (4 Bft) 95,74 %
21.03.2021 11:32 7,1 C 7,2 C 5,6 C 83 % 1023,3 hPa 0,0 l/m 0 min 0 min 190 W/m 25,7 km/h (4 Bft) 95,83 %
21.03.2021 11:34 7,1 C 7,2 C 5,6 C 82 % 1023,4 hPa 0,0 l/m 0 min 0 min 180 W/m 22,5 km/h (4 Bft) 95,74 %
21.03.2021 11:36 7,1 C 7,2 C 5,6 C 81 % 1023,4 hPa 0,0 l/m 0 min 0 min 174 W/m 41,8 km/h (6 Bft) 93,48 %
21.03.2021 11:38 7,1 C 7,8 C 5,6 C 81 % 1023,4 hPa 0,0 l/m 0 min 0 min 179 W/m 19,3 km/h (3 Bft) 95,74 %
21.03.2021 11:40 7,1 C 7,2 C 5,6 C 81 % 1023,4 hPa 0,0 l/m 0 min 0 min 187 W/m 29,0 km/h (5 Bft) 95,74 %
21.03.2021 11:42 7,1 C 7,8 C 5,6 C 80 % 1023,4 hPa 0,0 l/m 0 min 0 min 201 W/m 38,6 km/h (5 Bft) 91,49 %
21.03.2021 11:44 7,1 C 7,8 C 5,6 C 80 % 1023,4 hPa 0,0 l/m 0 min 0 min 228 W/m 35,4 km/h (5 Bft) 97,87 %
21.03.2021 11:46 7,2 C 7,8 C 6,1 C 80 % 1023,4 hPa 0,0 l/m 2 min 0 min 306 W/m 19,3 km/h (3 Bft) 95,74 %
21.03.2021 11:48 7,3 C 8,3 C 6,7 C 80 % 1023,5 hPa 0,0 l/m 2 min 0 min 342 W/m 35,4 km/h (5 Bft) 95,65 %
21.03.2021 11:50 7,4 C 8,9 C 6,7 C 79 % 1023,4 hPa 0,0 l/m 2 min 0 min 344 W/m 48,3 km/h (6 Bft) 95,74 %
21.03.2021 11:52 7,4 C 8,9 C 6,7 C 78 % 1023,4 hPa 0,0 l/m 2 min 0 min 333 W/m 32,2 km/h (5 Bft) 95,74 %
21.03.2021 11:54 7,5 C 8,9 C 6,7 C 77 % 1023,4 hPa 0,0 l/m 0 min 0 min 300 W/m 25,7 km/h (4 Bft) 95,74 %
21.03.2021 11:56 7,6 C 8,9 C 6,7 C 77 % 1023,5 hPa 0,0 l/m 0 min 0 min 300 W/m 25,7 km/h (4 Bft) 100,00 %
21.03.2021 11:58 7,6 C 8,9 C 6,7 C 77 % 1023,5 hPa 0,0 l/m 0 min 0 min 270 W/m 25,7 km/h (4 Bft) 100,00 %
21.03.2021 12:00 7,7 C 8,9 C 6,7 C 76 % 1023,5 hPa 0,0 l/m 0 min 0 min 251 W/m 25,7 km/h (4 Bft) 100,00 %
21.03.2021 12:02 7,8 C 8,9 C 6,7 C 76 % 1023,5 hPa 0,0 l/m 0 min 0 min 254 W/m 29,0 km/h (5 Bft) 95,74 %
21.03.2021 12:04 7,8 C 8,3 C 6,7 C 76 % 1023,5 hPa 0,0 l/m 0 min 0 min 249 W/m 38,6 km/h (5 Bft) 97,87 %
21.03.2021 12:08 7,8 C 8,3 C 6,1 C 75 % 1023,5 hPa 0,0 l/m 0 min 0 min 264 W/m 45,1 km/h (6 Bft) 100,00 %
21.03.2021 12:10 7,8 C 8,3 C 6,1 C 75 % 1023,5 hPa 0,0 l/m 0 min 0 min 284 W/m 32,2 km/h (5 Bft) 100,00 %
21.03.2021 12:12 7,8 C 8,3 C 6,1 C 75 % 1023,5 hPa 0,0 l/m 0 min 0 min 290 W/m 32,2 km/h (5 Bft) 97,87 %
21.03.2021 12:14 7,8 C 8,3 C 6,1 C 75 % 1023,5 hPa 0,0 l/m 0 min 0 min 275 W/m 45,1 km/h (6 Bft) 100,00 %
21.03.2021 12:16 7,8 C 8,3 C 6,1 C 75 % 1023,6 hPa 0,0 l/m 0 min 0 min 238 W/m 29,0 km/h (5 Bft) 100,00 %
21.03.2021 12:18 7,8 C 8,3 C 6,1 C 74 % 1023,4 hPa 0,0 l/m 0 min 0 min 226 W/m 22,5 km/h (4 Bft) 97,87 %
21.03.2021 12:20 7,8 C 8,3 C 6,1 C 74 % 1023,5 hPa 0,0 l/m 0 min 0 min 215 W/m 32,2 km/h (5 Bft) 97,87 %
21.03.2021 12:22 7,8 C 8,3 C 6,1 C 74 % 1023,5 hPa 0,0 l/m 0 min 0 min 209 W/m 16,1 km/h (3 Bft) 97,83 %
21.03.2021 12:24 7,7 C 7,8 C 6,1 C 74 % 1023,5 hPa 0,0 l/m 0 min 0 min 184 W/m 22,5 km/h (4 Bft) 100,00 %
21.03.2021 12:26 7,7 C 8,3 C 6,1 C 74 % 1023,5 hPa 0,0 l/m 0 min 0 min 212 W/m 32,2 km/h (5 Bft) 97,87 %
21.03.2021 12:28 7,7 C 8,3 C 6,1 C 75 % 1023,5 hPa 0,0 l/m 0 min 0 min 232 W/m 41,8 km/h (6 Bft) 100,00 %
21.03.2021 12:30 7,7 C 7,8 C 6,1 C 75 % 1023,5 hPa 0,0 l/m 0 min 0 min 246 W/m 41,8 km/h (6 Bft) 100,00 %
21.03.2021 12:32 7,6 C 7,8 C 6,1 C 75 % 1023,7 hPa 0,0 l/m 0 min 0 min 198 W/m 38,6 km/h (5 Bft) 97,92 %
21.03.2021 12:34 7,6 C 7,8 C 5,6 C 75 % 1023,6 hPa 0,0 l/m 0 min 0 min 174 W/m 29,0 km/h (5 Bft) 100,00 %
21.03.2021 12:36 7,6 C 7,8 C 5,6 C 75 % 1023,6 hPa 0,0 l/m 0 min 0 min 192 W/m 41,8 km/h (6 Bft) 100,00 %
21.03.2021 12:38 7,6 C 7,8 C 5,6 C 75 % 1023,6 hPa 0,0 l/m 0 min 0 min 218 W/m 41,8 km/h (6 Bft) 100,00 %
21.03.2021 12:40 7,6 C 7,8 C 5,6 C 75 % 1023,6 hPa 0,0 l/m 0 min 0 min 223 W/m 25,7 km/h (4 Bft) 100,00 %
21.03.2021 12:42 7,5 C 7,8 C 5,6 C 75 % 1023,6 hPa 0,0 l/m 0 min 0 min 248 W/m 32,2 km/h (5 Bft) 100,00 %
21.03.2021 12:44 7,5 C 8,3 C 6,1 C 75 % 1023,5 hPa 0,0 l/m 0 min 0 min 297 W/m 25,7 km/h (4 Bft) 100,00 %
21.03.2021 12:46 7,6 C 8,9 C 6,1 C 75 % 1023,5 hPa 0,0 l/m 2 min 0 min 342 W/m 25,7 km/h (4 Bft) 97,83 %
21.03.2021 12:48 7,6 C 8,9 C 6,1 C 75 % 1023,5 hPa 0,0 l/m 0 min 0 min 279 W/m 35,4 km/h (5 Bft) 100,00 %
21.03.2021 12:50 7,7 C 8,9 C 6,1 C 75 % 1023,4 hPa 0,0 l/m 0 min 0 min 244 W/m 29,0 km/h (5 Bft) 100,00 %
21.03.2021 12:52 7,8 C 8,9 C 6,1 C 75 % 1023,5 hPa 0,0 l/m 0 min 0 min 243 W/m 38,6 km/h (5 Bft) 100,00 %
21.03.2021 12:54 7,8 C 8,3 C 6,1 C 74 % 1023,4 hPa 0,0 l/m 0 min 0 min 229 W/m 25,7 km/h (4 Bft) 100,00 %
21.03.2021 12:56 7,8 C 8,3 C 6,1 C 74 % 1023,4 hPa 0,0 l/m 0 min 0 min 211 W/m 22,5 km/h (4 Bft) 100,00 %
21.03.2021 12:58 7,8 C 8,3 C 6,1 C 75 % 1023,5 hPa 0,0 l/m 0 min 0 min 203 W/m 12,9 km/h (3 Bft) 100,00 %
21.03.2021 13:00 7,8 C 8,3 C 6,1 C 75 % 1023,5 hPa 0,0 l/m 0 min 0 min 206 W/m 25,7 km/h (4 Bft) 100,00 %
21.03.2021 13:02 7,8 C 8,3 C 6,1 C 75 % 1023,5 hPa 0,0 l/m 0 min 0 min 200 W/m 48,3 km/h (6 Bft) 100,00 %
21.03.2021 13:04 7,8 C 8,3 C 6,1 C 75 % 1023,4 hPa 0,0 l/m 0 min 0 min 192 W/m 29,0 km/h (5 Bft) 100,00 %
21.03.2021 13:06 7,8 C 8,3 C 6,1 C 75 % 1023,3 hPa 0,0 l/m 0 min 0 min 189 W/m 35,4 km/h (5 Bft) 97,87 %
21.03.2021 13:08 7,8 C 8,3 C 6,1 C 74 % 1023,4 hPa 0,0 l/m 0 min 0 min 195 W/m 22,5 km/h (4 Bft) 95,74 %
21.03.2021 13:10 7,8 C 8,3 C 5,6 C 74 % 1023,4 hPa 0,0 l/m 0 min 0 min 194 W/m 22,5 km/h (4 Bft) 100,00 %
21.03.2021 13:12 7,8 C 8,3 C 5,6 C 74 % 1023,4 hPa 0,0 l/m 0 min 0 min 185 W/m 38,6 km/h (5 Bft) 97,87 %
21.03.2021 13:14 7,8 C 7,8 C 5,6 C 75 % 1023,4 hPa 0,0 l/m 0 min 0 min 182 W/m 32,2 km/h (5 Bft) 100,00 %
21.03.2021 13:16 7,8 C 8,3 C 5,6 C 74 % 1023,4 hPa 0,0 l/m 0 min 0 min 177 W/m 35,4 km/h (5 Bft) 100,00 %
21.03.2021 13:18 7,8 C 7,8 C 5,6 C 75 % 1023,4 hPa 0,0 l/m 0 min 0 min 171 W/m 32,2 km/h (5 Bft) 100,00 %
21.03.2021 13:20 7,8 C 7,8 C 5,6 C 75 % 1023,4 hPa 0,0 l/m 0 min 0 min 187 W/m 25,7 km/h (4 Bft) 100,00 %
21.03.2021 13:22 7,8 C 8,3 C 5,6 C 75 % 1023,3 hPa 0,0 l/m 0 min 0 min 212 W/m 16,1 km/h (3 Bft) 100,00 %
21.03.2021 13:24 7,8 C 8,3 C 6,1 C 75 % 1023,3 hPa 0,0 l/m 0 min 0 min 234 W/m 25,7 km/h (4 Bft) 100,00 %
21.03.2021 13:26 7,9 C 8,3 C 6,1 C 75 % 1023,4 hPa 0,0 l/m 0 min 0 min 244 W/m 19,3 km/h (3 Bft) 100,00 %
21.03.2021 13:28 7,9 C 8,3 C 6,1 C 74 % 1023,4 hPa 0,0 l/m 0 min 0 min 259 W/m 38,6 km/h (5 Bft) 97,87 %
21.03.2021 13:30 7,9 C 8,3 C 6,1 C 74 % 1023,4 hPa 0,0 l/m 0 min 0 min 249 W/m 38,6 km/h (5 Bft) 100,00 %
21.03.2021 13:32 7,9 C 8,3 C 6,1 C 74 % 1023,4 hPa 0,0 l/m 0 min 0 min 229 W/m 25,7 km/h (4 Bft) 100,00 %
21.03.2021 13:34 7,9 C 8,3 C 6,1 C 74 % 1023,4 hPa 0,0 l/m 0 min 0 min 221 W/m 19,3 km/h (3 Bft) 100,00 %
21.03.2021 13:36 8,0 C 8,3 C 6,1 C 74 % 1023,4 hPa 0,0 l/m 0 min 0 min 213 W/m 19,3 km/h (3 Bft) 97,87 %
21.03.2021 13:38 8,0 C 8,3 C 6,1 C 73 % 1023,3 hPa 0,0 l/m 0 min 0 min 217 W/m 35,4 km/h (5 Bft) 100,00 %
21.03.2021 13:40 8,0 C 8,3 C 6,1 C 73 % 1023,3 hPa 0,0 l/m 0 min 0 min 225 W/m 38,6 km/h (5 Bft) 100,00 %
21.03.2021 13:42 8,0 C 8,3 C 6,1 C 73 % 1023,4 hPa 0,0 l/m 0 min 0 min 255 W/m 32,2 km/h (5 Bft) 100,00 %
21.03.2021 13:44 8,0 C 9,4 C 6,1 C 72 % 1023,3 hPa 0,0 l/m 2 min 0 min 314 W/m 38,6 km/h (5 Bft) 100,00 %
21.03.2021 13:46 8,1 C 10,6 C 6,7 C 72 % 1023,3 hPa 0,0 l/m 2 min 0 min 336 W/m 32,2 km/h (5 Bft) 97,87 %
21.03.2021 13:48 8,1 C 10,6 C 6,7 C 72 % 1023,3 hPa 0,0 l/m 2 min 0 min 300 W/m 32,2 km/h (5 Bft) 97,87 %
21.03.2021 13:50 8,3 C 10,6 C 6,7 C 72 % 1023,4 hPa 0,0 l/m 0 min 0 min 272 W/m 41,8 km/h (6 Bft) 97,87 %
21.03.2021 13:52 8,3 C 10,0 C 6,7 C 72 % 1023,3 hPa 0,0 l/m 0 min 0 min 251 W/m 29,0 km/h (5 Bft) 97,87 %
21.03.2021 13:54 8,4 C 9,4 C 6,7 C 71 % 1023,3 hPa 0,0 l/m 0 min 0 min 215 W/m 38,6 km/h (5 Bft) 97,83 %
21.03.2021 13:56 8,4 C 8,9 C 6,1 C 71 % 1023,3 hPa 0,0 l/m 0 min 0 min 214 W/m 32,2 km/h (5 Bft) 97,87 %
21.03.2021 13:58 8,3 C 8,9 C 6,1 C 71 % 1023,3 hPa 0,0 l/m 0 min 0 min 230 W/m 25,7 km/h (4 Bft) 95,74 %
21.03.2021 14:00 8,3 C 8,9 C 6,1 C 71 % 1023,3 hPa 0,0 l/m 0 min 0 min 239 W/m 29,0 km/h (5 Bft) 95,74 %
21.03.2021 14:02 8,4 C 8,9 C 6,1 C 72 % 1023,3 hPa 0,0 l/m 0 min 0 min 249 W/m 25,7 km/h (4 Bft) 95,56 %
21.03.2021 14:04 8,4 C 8,9 C 6,1 C 71 % 1023,2 hPa 0,0 l/m 0 min 0 min 247 W/m 35,4 km/h (5 Bft) 93,62 %
21.03.2021 14:06 8,4 C 8,9 C 6,1 C 71 % 1023,2 hPa 0,0 l/m 0 min 0 min 249 W/m 35,4 km/h (5 Bft) 93,62 %
21.03.2021 14:08 8,4 C 8,9 C 6,1 C 71 % 1023,2 hPa 0,0 l/m 0 min 0 min 241 W/m 22,5 km/h (4 Bft) 91,30 %
21.03.2021 14:10 8,4 C 8,9 C 6,1 C 71 % 1023,2 hPa 0,0 l/m 0 min 0 min 228 W/m 19,3 km/h (3 Bft) 93,62 %
21.03.2021 14:12 8,4 C 8,9 C 6,1 C 71 % 1023,1 hPa 0,0 l/m 0 min 0 min 201 W/m 45,1 km/h (6 Bft) 95,74 %
21.03.2021 14:14 8,3 C 8,3 C 6,1 C 71 % 1023,1 hPa 0,0 l/m 0 min 0 min 194 W/m 38,6 km/h (5 Bft) 91,49 %
21.03.2021 14:16 8,3 C 8,3 C 6,1 C 72 % 1023,1 hPa 0,0 l/m 0 min 0 min 207 W/m 32,2 km/h (5 Bft) 95,74 %
21.03.2021 14:18 8,3 C 8,9 C 6,1 C 72 % 1023,0 hPa 0,0 l/m 0 min 0 min 210 W/m 22,5 km/h (4 Bft) 97,87 %
21.03.2021 14:20 8,3 C 8,9 C 6,1 C 72 % 1023,0 hPa 0,0 l/m 0 min 0 min 218 W/m 32,2 km/h (5 Bft) 97,83 %
21.03.2021 14:22 8,3 C 8,3 C 6,1 C 71 % 1023,0 hPa 0,0 l/m 0 min 0 min 203 W/m 32,2 km/h (5 Bft) 95,74 %
21.03.2021 14:24 8,3 C 8,3 C 6,1 C 72 % 1023,0 hPa 0,0 l/m 0 min 0 min 196 W/m 25,7 km/h (4 Bft) 95,74 %
21.03.2021 14:26 8,3 C 8,3 C 6,1 C 72 % 1023,1 hPa 0,0 l/m 0 min 0 min 219 W/m 29,0 km/h (5 Bft) 95,74 %
21.03.2021 14:28 8,3 C 8,9 C 6,1 C 72 % 1023,1 hPa 0,0 l/m 0 min 0 min 220 W/m 29,0 km/h (5 Bft) 93,62 %
21.03.2021 14:30 8,3 C 8,3 C 6,1 C 72 % 1022,9 hPa 0,0 l/m 0 min 0 min 234 W/m 29,0 km/h (5 Bft) 95,74 %
21.03.2021 14:32 8,3 C 8,9 C 6,1 C 71 % 1023,0 hPa 0,0 l/m 0 min 0 min 241 W/m 45,1 km/h (6 Bft) 95,74 %
21.03.2021 14:34 8,3 C 8,9 C 6,1 C 71 % 1022,9 hPa 0,0 l/m 0 min 0 min 256 W/m 35,4 km/h (5 Bft) 95,74 %
21.03.2021 14:36 8,3 C 9,4 C 6,1 C 71 % 1022,8 hPa 0,0 l/m 2 min 0 min 295 W/m 29,0 km/h (5 Bft) 93,62 %
21.03.2021 14:38 8,4 C 9,4 C 6,1 C 71 % 1022,9 hPa 0,0 l/m 2 min 0 min 277 W/m 22,5 km/h (4 Bft) 95,74 %
21.03.2021 14:40 8,4 C 9,4 C 6,1 C 71 % 1022,9 hPa 0,0 l/m 0 min 0 min 229 W/m 25,7 km/h (4 Bft) 95,74 %
21.03.2021 14:44 8,4 C 9,4 C 6,1 C 71 % 1022,8 hPa 0,0 l/m 0 min 0 min 212 W/m 16,1 km/h (3 Bft) 95,74 %
21.03.2021 14:46 8,5 C 8,9 C 6,1 C 71 % 1022,8 hPa 0,0 l/m 0 min 0 min 210 W/m 35,4 km/h (5 Bft) 97,87 %
21.03.2021 14:48 8,5 C 8,9 C 6,1 C 70 % 1022,8 hPa 0,0 l/m 0 min 0 min 210 W/m 38,6 km/h (5 Bft) 95,74 %
21.03.2021 14:50 8,4 C 8,9 C 6,1 C 70 % 1022,8 hPa 0,0 l/m 0 min 0 min 193 W/m 25,7 km/h (4 Bft) 97,87 %
21.03.2021 14:52 8,4 C 8,9 C 6,1 C 70 % 1022,7 hPa 0,0 l/m 0 min 0 min 186 W/m 22,5 km/h (4 Bft) 97,87 %
21.03.2021 14:54 8,4 C 8,9 C 6,1 C 71 % 1022,7 hPa 0,0 l/m 0 min 0 min 212 W/m 25,7 km/h (4 Bft) 95,74 %
21.03.2021 14:56 8,4 C 8,9 C 6,1 C 71 % 1022,7 hPa 0,0 l/m 0 min 0 min 209 W/m 32,2 km/h (5 Bft) 95,65 %
21.03.2021 14:58 8,4 C 8,9 C 6,1 C 71 % 1022,7 hPa 0,0 l/m 0 min 0 min 214 W/m 32,2 km/h (5 Bft) 95,74 %
21.03.2021 15:00 8,4 C 8,9 C 6,1 C 71 % 1022,7 hPa 0,0 l/m 0 min 0 min 226 W/m 22,5 km/h (4 Bft) 95,74 %
21.03.2021 15:02 8,4 C 10,0 C 6,1 C 71 % 1022,6 hPa 0,0 l/m 2 min 0 min 354 W/m 16,1 km/h (3 Bft) 97,87 %
21.03.2021 15:04 8,5 C 11,1 C 6,1 C 72 % 1022,7 hPa 0,0 l/m 2 min 0 min 416 W/m 12,9 km/h (3 Bft) 97,87 %
21.03.2021 15:06 8,5 C 10,6 C 6,1 C 71 % 1022,7 hPa 0,0 l/m 0 min 0 min 249 W/m 35,4 km/h (5 Bft) 95,74 %
21.03.2021 15:08 8,6 C 10,0 C 6,1 C 71 % 1022,6 hPa 0,0 l/m 0 min 0 min 200 W/m 35,4 km/h (5 Bft) 97,83 %
21.03.2021 15:10 8,6 C 9,4 C 6,1 C 70 % 1022,7 hPa 0,0 l/m 0 min 0 min 171 W/m 25,7 km/h (4 Bft) 97,87 %
21.03.2021 15:12 8,6 C 8,9 C 6,1 C 70 % 1022,7 hPa 0,0 l/m 0 min 0 min 161 W/m 35,4 km/h (5 Bft) 97,87 %
21.03.2021 15:14 8,5 C 8,9 C 6,1 C 70 % 1022,6 hPa 0,0 l/m 0 min 0 min 170 W/m 29,0 km/h (5 Bft) 97,87 %
21.03.2021 15:16 8,5 C 8,9 C 6,1 C 70 % 1022,7 hPa 0,0 l/m 0 min 0 min 173 W/m 22,5 km/h (4 Bft) 97,87 %
21.03.2021 15:18 8,4 C 8,9 C 6,1 C 70 % 1022,7 hPa 0,0 l/m 0 min 0 min 163 W/m 12,9 km/h (3 Bft) 97,87 %
21.03.2021 15:20 8,4 C 8,9 C 5,6 C 71 % 1022,7 hPa 0,0 l/m 0 min 0 min 151 W/m 22,5 km/h (4 Bft) 97,83 %
21.03.2021 15:22 8,4 C 8,9 C 5,6 C 71 % 1022,7 hPa 0,0 l/m 0 min 0 min 173 W/m 29,0 km/h (5 Bft) 95,74 %
21.03.2021 15:24 8,4 C 8,9 C 6,1 C 70 % 1022,8 hPa 0,0 l/m 0 min 0 min 209 W/m 25,7 km/h (4 Bft) 97,87 %
21.03.2021 15:26 8,4 C 8,9 C 6,1 C 71 % 1022,7 hPa 0,0 l/m 0 min 0 min 195 W/m 16,1 km/h (3 Bft) 97,87 %
21.03.2021 15:28 8,4 C 8,9 C 6,1 C 71 % 1022,8 hPa 0,0 l/m 0 min 0 min 181 W/m 35,4 km/h (5 Bft) 97,87 %
21.03.2021 15:30 8,4 C 8,3 C 5,6 C 71 % 1022,7 hPa 0,0 l/m 0 min 0 min 160 W/m 29,0 km/h (5 Bft) 97,87 %
21.03.2021 15:32 8,3 C 8,3 C 5,6 C 71 % 1022,8 hPa 0,0 l/m 0 min 0 min 128 W/m 25,7 km/h (4 Bft) 97,83 %
21.03.2021 15:34 8,3 C 8,3 C 5,6 C 71 % 1022,8 hPa 0,0 l/m 0 min 0 min 115 W/m 35,4 km/h (5 Bft) 97,87 %
21.03.2021 15:36 8,2 C 8,3 C 5,6 C 71 % 1022,7 hPa 0,0 l/m 0 min 0 min 119 W/m 32,2 km/h (5 Bft) 95,74 %
21.03.2021 15:38 8,2 C 8,3 C 5,6 C 71 % 1022,8 hPa 0,0 l/m 0 min 0 min 130 W/m 29,0 km/h (5 Bft) 97,87 %
21.03.2021 15:40 8,2 C 8,3 C 5,6 C 71 % 1022,7 hPa 0,0 l/m 0 min 0 min 146 W/m 29,0 km/h (5 Bft) 97,87 %
21.03.2021 15:42 8,2 C 8,3 C 5,6 C 72 % 1022,8 hPa 0,0 l/m 0 min 0 min 166 W/m 16,1 km/h (3 Bft) 97,87 %
21.03.2021 15:44 8,2 C 8,3 C 5,6 C 72 % 1022,8 hPa 0,0 l/m 0 min 0 min 151 W/m 22,5 km/h (4 Bft) 97,83 %
21.03.2021 15:46 8,2 C 8,3 C 5,6 C 72 % 1022,9 hPa 0,0 l/m 0 min 0 min 147 W/m 25,7 km/h (4 Bft) 97,87 %
21.03.2021 15:48 8,2 C 8,3 C 5,6 C 72 % 1022,8 hPa 0,0 l/m 0 min 0 min 128 W/m 35,4 km/h (5 Bft) 100,00 %
21.03.2021 15:50 8,2 C 8,3 C 5,6 C 72 % 1022,8 hPa 0,0 l/m 0 min 0 min 123 W/m 29,0 km/h (5 Bft) 100,00 %
21.03.2021 15:52 8,1 C 8,3 C 5,6 C 72 % 1022,9 hPa 0,0 l/m 0 min 0 min 147 W/m 22,5 km/h (4 Bft) 97,87 %
21.03.2021 15:54 8,1 C 8,3 C 5,6 C 71 % 1022,8 hPa 0,0 l/m 0 min 0 min 171 W/m 32,2 km/h (5 Bft) 97,87 %
21.03.2021 15:56 8,1 C 8,9 C 5,6 C 71 % 1022,8 hPa 0,0 l/m 0 min 0 min 167 W/m 29,0 km/h (5 Bft) 100,00 %
21.03.2021 15:58 8,1 C 8,9 C 5,6 C 71 % 1022,8 hPa 0,0 l/m 0 min 0 min 151 W/m 22,5 km/h (4 Bft) 100,00 %
21.03.2021 16:00 8,1 C 8,9 C 5,6 C 72 % 1022,8 hPa 0,0 l/m 0 min 0 min 135 W/m 16,1 km/h (3 Bft) 100,00 %
21.03.2021 16:02 8,2 C 8,9 C 5,6 C 72 % 1022,8 hPa 0,0 l/m 0 min 0 min 155 W/m 29,0 km/h (5 Bft) 100,00 %
21.03.2021 16:04 8,2 C 9,4 C 5,6 C 72 % 1022,8 hPa 0,0 l/m 2 min 0 min 219 W/m 25,7 km/h (4 Bft) 95,74 %
21.03.2021 16:06 8,3 C 9,4 C 5,6 C 72 % 1022,8 hPa 0,0 l/m 2 min 0 min 223 W/m 25,7 km/h (4 Bft) 100,00 %
21.03.2021 16:08 8,3 C 9,4 C 6,1 C 72 % 1022,8 hPa 0,0 l/m 2 min 0 min 195 W/m 22,5 km/h (4 Bft) 100,00 %
21.03.2021 16:10 8,3 C 8,9 C 6,1 C 71 % 1022,8 hPa 0,0 l/m 0 min 0 min 173 W/m 22,5 km/h (4 Bft) 100,00 %
21.03.2021 16:12 8,3 C 8,9 C 5,6 C 71 % 1022,8 hPa 0,0 l/m 0 min 0 min 185 W/m 22,5 km/h (4 Bft) 100,00 %
21.03.2021 16:14 8,3 C 9,4 C 5,6 C 71 % 1022,8 hPa 0,0 l/m 2 min 0 min 206 W/m 35,4 km/h (5 Bft) 100,00 %
21.03.2021 16:16 8,3 C 8,9 C 5,6 C 71 % 1022,8 hPa 0,0 l/m 0 min 0 min 168 W/m 25,7 km/h (4 Bft) 97,87 %
21.03.2021 16:18 8,3 C 8,9 C 5,6 C 71 % 1022,8 hPa 0,0 l/m 0 min 0 min 137 W/m 38,6 km/h (5 Bft) 100,00 %
21.03.2021 16:20 8,3 C 8,3 C 5,6 C 71 % 1022,8 hPa 0,0 l/m 0 min 0 min 120 W/m 38,6 km/h (5 Bft) 100,00 %
21.03.2021 16:22 8,2 C 8,3 C 5,6 C 70 % 1022,8 hPa 0,0 l/m 0 min 0 min 112 W/m 22,5 km/h (4 Bft) 100,00 %
21.03.2021 16:24 8,2 C 8,3 C 5,6 C 71 % 1022,8 hPa 0,0 l/m 0 min 0 min 112 W/m 25,7 km/h (4 Bft) 100,00 %
21.03.2021 16:26 8,1 C 7,8 C 5,0 C 71 % 1022,9 hPa 0,0 l/m 0 min 0 min 118 W/m 29,0 km/h (5 Bft) 100,00 %
21.03.2021 16:28 8,1 C 7,8 C 5,0 C 71 % 1022,8 hPa 0,0 l/m 0 min 0 min 111 W/m 19,3 km/h (3 Bft) 100,00 %
21.03.2021 16:30 8,0 C 7,8 C 5,0 C 72 % 1022,9 hPa 0,0 l/m 0 min 0 min 91 W/m 25,7 km/h (4 Bft) 100,00 %
21.03.2021 16:32 8,0 C 7,8 C 5,0 C 72 % 1022,8 hPa 0,0 l/m 0 min 0 min 90 W/m 29,0 km/h (5 Bft) 100,00 %
21.03.2021 16:34 8,0 C 7,8 C 5,0 C 72 % 1022,8 hPa 0,0 l/m 0 min 0 min 113 W/m 29,0 km/h (5 Bft) 100,00 %
21.03.2021 16:36 7,9 C 7,8 C 5,0 C 72 % 1022,8 hPa 0,0 l/m 0 min 0 min 122 W/m 25,7 km/h (4 Bft) 100,00 %
21.03.2021 16:38 7,9 C 7,8 C 5,0 C 73 % 1022,8 hPa 0,0 l/m 0 min 0 min 120 W/m 22,5 km/h (4 Bft) 100,00 %
21.03.2021 16:40 7,9 C 7,8 C 5,0 C 72 % 1022,8 hPa 0,0 l/m 0 min 0 min 117 W/m 35,4 km/h (5 Bft) 100,00 %
21.03.2021 16:42 7,9 C 7,8 C 5,0 C 72 % 1022,8 hPa 0,0 l/m 0 min 0 min 112 W/m 22,5 km/h (4 Bft) 97,87 %
21.03.2021 16:44 7,8 C 7,8 C 5,0 C 72 % 1022,8 hPa 0,0 l/m 0 min 0 min 108 W/m 38,6 km/h (5 Bft) 100,00 %
21.03.2021 16:46 7,8 C 7,8 C 5,0 C 72 % 1022,7 hPa 0,0 l/m 0 min 0 min 112 W/m 29,0 km/h (5 Bft) 100,00 %
21.03.2021 16:48 7,8 C 7,8 C 5,0 C 72 % 1022,7 hPa 0,0 l/m 0 min 0 min 115 W/m 48,3 km/h (6 Bft) 100,00 %
21.03.2021 16:50 7,8 C 7,8 C 5,0 C 73 % 1022,7 hPa 0,0 l/m 0 min 0 min 110 W/m 32,2 km/h (5 Bft) 100,00 %
21.03.2021 16:52 7,7 C 7,8 C 5,0 C 73 % 1022,8 hPa 0,0 l/m 0 min 0 min 110 W/m 35,4 km/h (5 Bft) 97,87 %
21.03.2021 16:54 7,7 C 7,8 C 5,0 C 73 % 1022,7 hPa 0,0 l/m 0 min 0 min 110 W/m 25,7 km/h (4 Bft) 97,87 %
21.03.2021 16:56 7,7 C 7,8 C 5,0 C 73 % 1022,8 hPa 0,0 l/m 0 min 0 min 98 W/m 19,3 km/h (3 Bft) 97,87 %
21.03.2021 16:58 7,6 C 7,2 C 5,0 C 73 % 1022,8 hPa 0,0 l/m 0 min 0 min 85 W/m 19,3 km/h (3 Bft) 97,83 %
21.03.2021 17:00 7,6 C 7,2 C 5,0 C 73 % 1022,8 hPa 0,0 l/m 0 min 0 min 75 W/m 19,3 km/h (3 Bft) 95,74 %
21.03.2021 17:02 7,6 C 7,2 C 5,0 C 73 % 1022,8 hPa 0,0 l/m 0 min 0 min 72 W/m 22,5 km/h (4 Bft) 95,83 %
21.03.2021 17:04 7,6 C 7,2 C 5,0 C 73 % 1022,8 hPa 0,0 l/m 0 min 0 min 71 W/m 25,7 km/h (4 Bft) 93,62 %
21.03.2021 17:06 7,6 C 7,2 C 4,5 C 73 % 1022,8 hPa 0,0 l/m 0 min 0 min 66 W/m 22,5 km/h (4 Bft) 95,74 %
21.03.2021 17:08 7,6 C 7,2 C 4,5 C 73 % 1022,8 hPa 0,0 l/m 0 min 0 min 61 W/m 22,5 km/h (4 Bft) 95,24 %
21.03.2021 17:10 7,5 C 7,2 C 4,5 C 73 % 1022,8 hPa 0,0 l/m 0 min 0 min 53 W/m 22,5 km/h (4 Bft) 95,74 %
21.03.2021 17:12 7,5 C 7,2 C 4,5 C 73 % 1022,9 hPa 0,0 l/m 0 min 0 min 48 W/m 32,2 km/h (5 Bft) 95,65 %
21.03.2021 17:14 7,5 C 7,2 C 4,5 C 73 % 1022,8 hPa 0,0 l/m 0 min 0 min 54 W/m 25,7 km/h (4 Bft) 95,74 %
21.03.2021 17:16 7,5 C 7,2 C 4,5 C 73 % 1022,8 hPa 0,0 l/m 0 min 0 min 58 W/m 19,3 km/h (3 Bft) 95,74 %
21.03.2021 17:18 7,5 C 7,2 C 4,5 C 74 % 1022,8 hPa 0,0 l/m 0 min 0 min 56 W/m 25,7 km/h (4 Bft) 95,74 %
21.03.2021 17:20 7,5 C 7,2 C 4,5 C 74 % 1022,8 hPa 0,0 l/m 0 min 0 min 61 W/m 22,5 km/h (4 Bft) 95,74 %
21.03.2021 17:22 7,4 C 7,2 C 4,5 C 74 % 1022,8 hPa 0,0 l/m 0 min 0 min 63 W/m 29,0 km/h (5 Bft) 93,62 %
21.03.2021 17:24 7,4 C 7,2 C 4,5 C 74 % 1022,7 hPa 0,0 l/m 0 min 0 min 68 W/m 22,5 km/h (4 Bft) 95,65 %
21.03.2021 17:26 7,4 C 7,2 C 4,5 C 74 % 1022,7 hPa 0,0 l/m 0 min 0 min 69 W/m 22,5 km/h (4 Bft) 91,49 %
21.03.2021 17:28 7,4 C 7,2 C 4,5 C 74 % 1022,8 hPa 0,0 l/m 0 min 0 min 66 W/m 25,7 km/h (4 Bft) 93,62 %
21.03.2021 17:30 7,4 C 6,7 C 4,5 C 74 % 1022,8 hPa 0,0 l/m 0 min 0 min 63 W/m 25,7 km/h (4 Bft) 93,62 %
21.03.2021 17:32 7,3 C 6,7 C 4,5 C 74 % 1022,8 hPa 0,0 l/m 0 min 0 min 59 W/m 19,3 km/h (3 Bft) 95,83 %
21.03.2021 17:34 7,3 C 6,7 C 4,5 C 75 % 1022,8 hPa 0,0 l/m 0 min 0 min 57 W/m 19,3 km/h (3 Bft) 95,74 %
21.03.2021 17:36 7,3 C 6,7 C 4,5 C 75 % 1022,8 hPa 0,0 l/m 0 min 0 min 55 W/m 22,5 km/h (4 Bft) 95,65 %
21.03.2021 17:38 7,3 C 6,7 C 4,5 C 75 % 1022,8 hPa 0,0 l/m 0 min 0 min 51 W/m 22,5 km/h (4 Bft) 95,74 %
21.03.2021 17:40 7,3 C 6,7 C 4,5 C 75 % 1022,9 hPa 0,0 l/m 0 min 0 min 47 W/m 22,5 km/h (4 Bft) 93,62 %
21.03.2021 17:42 7,3 C 6,7 C 4,5 C 75 % 1022,8 hPa 0,0 l/m 0 min 0 min 43 W/m 16,1 km/h (3 Bft) 95,74 %
21.03.2021 17:44 7,3 C 6,7 C 4,5 C 75 % 1022,8 hPa 0,0 l/m 0 min 0 min 39 W/m 19,3 km/h (3 Bft) 95,74 %
21.03.2021 17:46 7,3 C 6,7 C 4,5 C 75 % 1022,8 hPa 0,0 l/m 0 min 0 min 37 W/m 22,5 km/h (4 Bft) 97,96 %
21.03.2021 17:48 7,2 C 6,7 C 4,5 C 75 % 1022,8 hPa 0,0 l/m 0 min 0 min 33 W/m 12,9 km/h (3 Bft) 100,00 %
21.03.2021 17:50 7,2 C 6,7 C 4,5 C 75 % 1022,9 hPa 0,0 l/m 0 min 0 min 34 W/m 16,1 km/h (3 Bft) 97,87 %
21.03.2021 17:52 7,2 C 6,7 C 4,5 C 75 % 1022,9 hPa 0,0 l/m 0 min 0 min 33 W/m 22,5 km/h (4 Bft) 100,00 %
21.03.2021 17:54 7,2 C 6,7 C 4,5 C 75 % 1022,9 hPa 0,0 l/m 0 min 0 min 31 W/m 9,7 km/h (2 Bft) 100,00 %
21.03.2021 17:56 7,2 C 6,7 C 3,9 C 76 % 1022,9 hPa 0,0 l/m 0 min 0 min 31 W/m 9,7 km/h (2 Bft) 100,00 %
21.03.2021 17:58 7,1 C 6,7 C 3,9 C 76 % 1022,8 hPa 0,0 l/m 0 min 0 min 27 W/m 19,3 km/h (3 Bft) 100,00 %
21.03.2021 18:00 7,1 C 6,7 C 3,9 C 76 % 1022,8 hPa 0,0 l/m 0 min 0 min 25 W/m 25,7 km/h (4 Bft) 100,00 %
21.03.2021 18:02 7,1 C 6,7 C 3,9 C 75 % 1022,9 hPa 0,0 l/m 0 min 0 min 21 W/m 22,5 km/h (4 Bft) 100,00 %
21.03.2021 18:04 7,1 C 6,7 C 3,9 C 75 % 1022,8 hPa 0,0 l/m 0 min 0 min 21 W/m 16,1 km/h (3 Bft) 100,00 %
21.03.2021 18:08 7,1 C 6,7 C 3,9 C 75 % 1022,8 hPa 0,0 l/m 0 min 0 min 21 W/m 25,7 km/h (4 Bft) 98,95 %
21.03.2021 18:10 7,1 C 6,7 C 3,9 C 75 % 1022,9 hPa 0,0 l/m 0 min 0 min 18 W/m 12,9 km/h (3 Bft) 76,74 %
21.03.2021 18:12 7,0 C 6,7 C 3,9 C 75 % 1022,8 hPa 0,0 l/m 0 min 0 min 18 W/m 22,5 km/h (4 Bft) 74,42 %
21.03.2021 18:14 7,0 C 6,7 C 3,9 C 75 % 1022,8 hPa 0,0 l/m 0 min 0 min 18 W/m 22,5 km/h (4 Bft) 100,00 %
21.03.2021 18:16 7,0 C 6,1 C 3,9 C 75 % 1022,8 hPa 0,0 l/m 0 min 0 min 19 W/m 19,3 km/h (3 Bft) 100,00 %
21.03.2021 18:18 7,0 C 6,1 C 3,9 C 75 % 1022,8 hPa 0,0 l/m 0 min 0 min 18 W/m 19,3 km/h (3 Bft) 100,00 %
21.03.2021 18:20 7,0 C 6,1 C 3,9 C 75 % 1022,9 hPa 0,0 l/m 0 min 0 min 16 W/m 19,3 km/h (3 Bft) 100,00 %
21.03.2021 18:22 7,0 C 6,1 C 3,9 C 75 % 1022,9 hPa 0,0 l/m 0 min 0 min 15 W/m 16,1 km/h (3 Bft) 100,00 %
21.03.2021 18:24 6,9 C 6,1 C 3,9 C 76 % 1022,9 hPa 0,0 l/m 0 min 0 min 13 W/m 16,1 km/h (3 Bft) 95,74 %
21.03.2021 18:26 6,9 C 6,1 C 3,9 C 76 % 1023,0 hPa 0,0 l/m 0 min 0 min 12 W/m 25,7 km/h (4 Bft) 100,00 %
21.03.2021 18:28 6,9 C 6,1 C 3,9 C 76 % 1023,0 hPa 0,0 l/m 0 min 0 min 11 W/m 16,1 km/h (3 Bft) 100,00 %
21.03.2021 18:30 6,9 C 6,1 C 3,9 C 76 % 1023,0 hPa 0,0 l/m 0 min 0 min 9 W/m 25,7 km/h (4 Bft) 95,74 %
21.03.2021 18:32 6,9 C 6,1 C 3,9 C 76 % 1023,0 hPa 0,0 l/m 0 min 0 min 8 W/m 16,1 km/h (3 Bft) 100,00 %
21.03.2021 18:34 6,8 C 6,1 C 3,9 C 76 % 1023,1 hPa 0,0 l/m 0 min 0 min 7 W/m 19,3 km/h (3 Bft) 100,00 %
21.03.2021 18:36 6,8 C 6,1 C 3,9 C 76 % 1023,0 hPa 0,0 l/m 0 min 0 min 7 W/m 19,3 km/h (3 Bft) 100,00 %
21.03.2021 18:38 6,8 C 6,1 C 3,9 C 77 % 1023,1 hPa 0,0 l/m 0 min 0 min 5 W/m 22,5 km/h (4 Bft) 100,00 %
21.03.2021 18:40 6,8 C 6,1 C 3,9 C 77 % 1023,1 hPa 0,0 l/m 0 min 0 min 5 W/m 9,7 km/h (2 Bft) 100,00 %
21.03.2021 18:42 6,8 C 6,1 C 3,9 C 77 % 1023,1 hPa 0,0 l/m 0 min 0 min 2 W/m 9,7 km/h (2 Bft) 97,87 %
21.03.2021 18:44 6,8 C 6,1 C 3,9 C 77 % 1023,1 hPa 0,0 l/m 0 min 0 min 0 W/m 25,7 km/h (4 Bft) 97,87 %
21.03.2021 18:46 6,8 C 6,1 C 3,4 C 77 % 1023,2 hPa 0,0 l/m 0 min 0 min 0 W/m 19,3 km/h (3 Bft) 97,83 %
21.03.2021 18:48 6,8 C 6,1 C 3,4 C 77 % 1023,2 hPa 0,0 l/m 0 min 0 min 0 W/m 12,9 km/h (3 Bft) 95,74 %
21.03.2021 18:50 6,7 C 6,1 C 3,4 C 77 % 1023,3 hPa 0,0 l/m 0 min 0 min 0 W/m 16,1 km/h (3 Bft) 97,87 %
21.03.2021 18:52 6,7 C 6,1 C 3,4 C 77 % 1023,3 hPa 0,0 l/m 0 min 0 min 0 W/m 22,5 km/h (4 Bft) 97,87 %
21.03.2021 18:54 6,6 C 6,1 C 3,4 C 77 % 1023,3 hPa 0,0 l/m 0 min 0 min 0 W/m 19,3 km/h (3 Bft) 97,87 %
21.03.2021 18:56 6,6 C 6,1 C 3,4 C 77 % 1023,3 hPa 0,0 l/m 0 min 0 min 0 W/m 22,5 km/h (4 Bft) 93,62 %
21.03.2021 18:58 6,6 C 6,1 C 3,4 C 77 % 1023,3 hPa 0,0 l/m 0 min 0 min 0 W/m 19,3 km/h (3 Bft) 95,65 %
21.03.2021 19:00 6,6 C 5,6 C 3,4 C 77 % 1023,3 hPa 0,0 l/m 0 min 0 min 0 W/m 22,5 km/h (4 Bft) 97,87 %
21.03.2021 19:02 6,5 C 5,6 C 3,4 C 76 % 1023,4 hPa 0,0 l/m 0 min 0 min 0 W/m 19,3 km/h (3 Bft) 95,74 %
21.03.2021 19:04 6,5 C 5,6 C 3,4 C 76 % 1023,4 hPa 0,0 l/m 0 min 0 min 0 W/m 29,0 km/h (5 Bft) 95,74 %
21.03.2021 19:06 6,5 C 5,6 C 3,4 C 76 % 1023,4 hPa 0,0 l/m 0 min 0 min 0 W/m 25,7 km/h (4 Bft) 95,74 %
21.03.2021 19:08 6,5 C 5,6 C 3,4 C 76 % 1023,3 hPa 0,0 l/m 0 min 0 min 0 W/m 25,7 km/h (4 Bft) 95,74 %
21.03.2021 19:10 6,5 C 5,6 C 3,4 C 76 % 1023,4 hPa 0,0 l/m 0 min 0 min 0 W/m 22,5 km/h (4 Bft) 95,65 %
21.03.2021 19:12 6,4 C 5,6 C 3,4 C 76 % 1023,4 hPa 0,0 l/m 0 min 0 min 0 W/m 19,3 km/h (3 Bft) 98,08 %
21.03.2021 19:14 6,4 C 5,6 C 3,4 C 76 % 1023,4 hPa 0,0 l/m 0 min 0 min 0 W/m 32,2 km/h (5 Bft) 97,87 %
21.03.2021 19:16 6,4 C 5,6 C 3,4 C 76 % 1023,4 hPa 0,0 l/m 0 min 0 min 0 W/m 25,7 km/h (4 Bft) 97,14 %
21.03.2021 19:18 6,4 C 5,6 C 3,4 C 76 % 1023,3 hPa 0,0 l/m 0 min 0 min 0 W/m 12,9 km/h (3 Bft) 97,87 %
21.03.2021 19:20 6,4 C 5,6 C 3,4 C 76 % 1023,4 hPa 0,0 l/m 0 min 0 min 0 W/m 9,7 km/h (2 Bft) 97,87 %
21.03.2021 19:22 6,4 C 5,6 C 3,4 C 76 % 1023,4 hPa 0,0 l/m 0 min 0 min 0 W/m 22,5 km/h (4 Bft) 97,87 %
21.03.2021 19:24 6,4 C 5,6 C 3,4 C 76 % 1023,5 hPa 0,0 l/m 0 min 0 min 0 W/m 19,3 km/h (3 Bft) 100,00 %
21.03.2021 19:26 6,4 C 5,6 C 3,4 C 77 % 1023,5 hPa 0,0 l/m 0 min 0 min 0 W/m 22,5 km/h (4 Bft) 100,00 %
21.03.2021 19:28 6,4 C 5,6 C 3,4 C 77 % 1023,5 hPa 0,0 l/m 0 min 0 min 0 W/m 12,9 km/h (3 Bft) 95,65 %
21.03.2021 19:30 6,4 C 5,6 C 3,4 C 77 % 1023,5 hPa 0,0 l/m 0 min 0 min 0 W/m 12,9 km/h (3 Bft) 53,33 %
21.03.2021 19:32 6,3 C 5,6 C 3,4 C 77 % 1023,5 hPa 0,0 l/m 0 min 0 min 0 W/m 9,7 km/h (2 Bft) 95,74 %
21.03.2021 19:34 6,3 C 5,6 C 3,4 C 77 % 1023,5 hPa 0,0 l/m 0 min 0 min 0 W/m 6,4 km/h (2 Bft) 97,87 %
21.03.2021 19:36 6,3 C 5,6 C 3,4 C 77 % 1023,5 hPa 0,0 l/m 0 min 0 min 0 W/m 12,9 km/h (3 Bft) 97,87 %
21.03.2021 19:38 6,3 C 5,6 C 3,4 C 78 % 1023,5 hPa 0,0 l/m 0 min 0 min 0 W/m 12,9 km/h (3 Bft) 87,23 %
21.03.2021 19:40 6,3 C 5,6 C 3,4 C 78 % 1023,5 hPa 0,0 l/m 0 min 0 min 0 W/m 12,9 km/h (3 Bft) 89,13 %
21.03.2021 19:42 6,3 C 5,6 C 3,4 C 78 % 1023,6 hPa 0,0 l/m 0 min 0 min 0 W/m 9,7 km/h (2 Bft) 97,87 %
21.03.2021 19:44 6,2 C 5,6 C 2,8 C 78 % 1023,6 hPa 0,0 l/m 0 min 0 min 0 W/m 16,1 km/h (3 Bft) 95,74 %
21.03.2021 19:46 6,2 C 5,6 C 2,8 C 79 % 1023,7 hPa 0,0 l/m 0 min 0 min 0 W/m 6,4 km/h (2 Bft) 95,74 %
21.03.2021 19:48 6,2 C 5,6 C 2,8 C 79 % 1023,7 hPa 0,0 l/m 0 min 0 min 0 W/m 12,9 km/h (3 Bft) 95,74 %
21.03.2021 19:50 6,2 C 5,6 C 3,4 C 79 % 1023,6 hPa 0,0 l/m 0 min 0 min 0 W/m 12,9 km/h (3 Bft) 95,74 %
21.03.2021 19:52 6,2 C 5,6 C 3,4 C 80 % 1023,7 hPa 0,0 l/m 0 min 0 min 0 W/m 19,3 km/h (3 Bft) 93,48 %
21.03.2021 19:54 6,2 C 5,6 C 3,4 C 80 % 1023,7 hPa 0,0 l/m 0 min 0 min 0 W/m 19,3 km/h (3 Bft) 93,62 %
21.03.2021 19:56 6,2 C 5,6 C 3,4 C 80 % 1023,8 hPa 0,0 l/m 0 min 0 min 0 W/m 19,3 km/h (3 Bft) 95,74 %
21.03.2021 19:58 6,2 C 5,6 C 3,4 C 80 % 1023,7 hPa 0,0 l/m 0 min 0 min 0 W/m 12,9 km/h (3 Bft) 93,62 %
21.03.2021 20:00 6,2 C 5,6 C 3,4 C 80 % 1023,7 hPa 0,0 l/m 0 min 0 min 0 W/m 16,1 km/h (3 Bft) 91,49 %
21.03.2021 20:02 6,1 C 5,6 C 3,4 C 81 % 1023,7 hPa 0,0 l/m 0 min 0 min 0 W/m 19,3 km/h (3 Bft) 93,62 %
21.03.2021 20:04 6,1 C 5,6 C 3,4 C 81 % 1023,8 hPa 0,0 l/m 0 min 0 min 0 W/m 12,9 km/h (3 Bft) 95,74 %
21.03.2021 20:06 6,1 C 5,6 C 3,4 C 81 % 1023,8 hPa 0,0 l/m 0 min 0 min 0 W/m 16,1 km/h (3 Bft) 93,62 %
21.03.2021 20:08 6,1 C 5,6 C 3,4 C 81 % 1023,9 hPa 0,0 l/m 0 min 0 min 0 W/m 12,9 km/h (3 Bft) 95,74 %
21.03.2021 20:10 6,1 C 5,6 C 3,4 C 81 % 1023,9 hPa 0,0 l/m 0 min 0 min 0 W/m 12,9 km/h (3 Bft) 95,74 %
21.03.2021 20:12 6,1 C 5,6 C 3,4 C 81 % 1023,8 hPa 0,0 l/m 0 min 0 min 0 W/m 12,9 km/h (3 Bft) 95,74 %
21.03.2021 20:14 6,1 C 5,6 C 2,8 C 81 % 1023,9 hPa 0,0 l/m 0 min 0 min 0 W/m 9,7 km/h (2 Bft) 93,48 %
21.03.2021 20:16 6,1 C 5,6 C 2,8 C 81 % 1023,9 hPa 0,0 l/m 0 min 0 min 0 W/m 16,1 km/h (3 Bft) 93,62 %
21.03.2021 20:18 6,1 C 5,6 C 2,8 C 81 % 1023,9 hPa 0,0 l/m 0 min 0 min 0 W/m 12,9 km/h (3 Bft) 93,62 %
21.03.2021 20:20 6,0 C 5,6 C 2,8 C 81 % 1024,0 hPa 0,0 l/m 0 min 0 min 0 W/m 12,9 km/h (3 Bft) 97,87 %
21.03.2021 20:22 6,0 C 5,6 C 2,8 C 81 % 1024,0 hPa 0,0 l/m 0 min 0 min 0 W/m 9,7 km/h (2 Bft) 97,87 %
21.03.2021 20:24 6,0 C 5,0 C 2,8 C 81 % 1024,0 hPa 0,0 l/m 0 min 0 min 0 W/m 19,3 km/h (3 Bft) 97,87 %
21.03.2021 20:25 6,0 C 5,0 C 2,8 C 81 % 1024,0 hPa 0,0 l/m 0 min 0 min 0 W/m 19,3 km/h (3 Bft) 95,65 %
21.03.2021 20:28 6,0 C 5,0 C 2,8 C 81 % 1024,0 hPa 0,0 l/m 0 min 0 min 0 W/m 16,1 km/h (3 Bft) 97,87 %
21.03.2021 20:30 6,0 C 5,0 C 2,8 C 81 % 1024,0 hPa 0,0 l/m 0 min 0 min 0 W/m 16,1 km/h (3 Bft) 97,87 %
21.03.2021 20:32 6,0 C 5,0 C 2,8 C 81 % 1024,0 hPa 0,0 l/m 0 min 0 min 0 W/m 19,3 km/h (3 Bft) 98,11 %
21.03.2021 20:34 5,9 C 5,0 C 2,8 C 81 % 1024,0 hPa 0,0 l/m 0 min 0 min 0 W/m 16,1 km/h (3 Bft) 95,74 %
21.03.2021 20:36 5,9 C 5,0 C 2,8 C 81 % 1024,0 hPa 0,0 l/m 0 min 0 min 0 W/m 9,7 km/h (2 Bft) 97,87 %
21.03.2021 20:38 5,9 C 5,0 C 2,8 C 81 % 1024,0 hPa 0,0 l/m 0 min 0 min 0 W/m 16,1 km/h (3 Bft) 97,87 %
21.03.2021 20:40 5,9 C 5,0 C 2,8 C 81 % 1024,0 hPa 0,0 l/m 0 min 0 min 0 W/m 12,9 km/h (3 Bft) 97,87 %
21.03.2021 20:42 5,9 C 5,0 C 2,8 C 81 % 1024,0 hPa 0,0 l/m 0 min 0 min 0 W/m 12,9 km/h (3 Bft) 97,87 %
21.03.2021 20:44 5,9 C 5,0 C 2,8 C 81 % 1024,0 hPa 0,0 l/m 0 min 0 min 0 W/m 16,1 km/h (3 Bft) 100,00 %
21.03.2021 20:46 5,9 C 5,0 C 2,8 C 81 % 1024,0 hPa 0,0 l/m 0 min 0 min 0 W/m 6,4 km/h (2 Bft) 97,87 %
21.03.2021 20:48 5,9 C 5,0 C 2,8 C 81 % 1024,1 hPa 0,0 l/m 0 min 0 min 0 W/m 22,5 km/h (4 Bft) 97,87 %
21.03.2021 20:50 5,9 C 5,0 C 2,8 C 81 % 1024,1 hPa 0,0 l/m 0 min 0 min 0 W/m 12,9 km/h (3 Bft) 100,00 %
21.03.2021 20:52 5,9 C 5,0 C 2,8 C 81 % 1024,0 hPa 0,0 l/m 0 min 0 min 0 W/m 9,7 km/h (2 Bft) 97,87 %
21.03.2021 20:54 5,9 C 5,0 C 2,8 C 81 % 1024,1 hPa 0,0 l/m 0 min 0 min 0 W/m 19,3 km/h (3 Bft) 97,87 %
21.03.2021 20:56 5,9 C 5,0 C 2,8 C 81 % 1024,1 hPa 0,0 l/m 0 min 0 min 0 W/m 19,3 km/h (3 Bft) 100,00 %
21.03.2021 20:58 5,9 C 5,0 C 2,8 C 81 % 1024,1 hPa 0,0 l/m 0 min 0 min 0 W/m 22,5 km/h (4 Bft) 100,00 %
21.03.2021 21:00 5,9 C 5,0 C 2,8 C 81 % 1024,1 hPa 0,0 l/m 0 min 0 min 0 W/m 16,1 km/h (3 Bft) 100,00 %
21.03.2021 21:02 5,8 C 5,0 C 2,8 C 81 % 1024,1 hPa 0,0 l/m 0 min 0 min 0 W/m 9,7 km/h (2 Bft) 100,00 %
21.03.2021 21:04 5,8 C 5,0 C 2,8 C 81 % 1024,1 hPa 0,0 l/m 0 min 0 min 0 W/m 19,3 km/h (3 Bft) 97,87 %
21.03.2021 21:06 5,8 C 5,0 C 2,8 C 81 % 1024,1 hPa 0,0 l/m 0 min 0 min 0 W/m 16,1 km/h (3 Bft) 97,83 %
21.03.2021 21:08 5,8 C 5,0 C 2,8 C 81 % 1024,2 hPa 0,0 l/m 0 min 0 min 0 W/m 16,1 km/h (3 Bft) 100,00 %
21.03.2021 21:10 5,8 C 5,0 C 2,8 C 81 % 1024,2 hPa 0,0 l/m 0 min 0 min 0 W/m 12,9 km/h (3 Bft) 100,00 %
21.03.2021 21:12 5,8 C 5,0 C 2,8 C 81 % 1024,2 hPa 0,0 l/m 0 min 0 min 0 W/m 12,9 km/h (3 Bft) 95,74 %
21.03.2021 21:14 5,8 C 5,0 C 2,8 C 81 % 1024,2 hPa 0,0 l/m 0 min 0 min 0 W/m 12,9 km/h (3 Bft) 100,00 %
21.03.2021 21:16 5,7 C 5,0 C 2,8 C 81 % 1024,2 hPa 0,0 l/m 0 min 0 min 0 W/m 12,9 km/h (3 Bft) 100,00 %
21.03.2021 21:18 5,7 C 5,0 C 2,8 C 81 % 1024,2 hPa 0,0 l/m 0 min 0 min 0 W/m 9,7 km/h (2 Bft) 100,00 %
21.03.2021 21:20 5,7 C 5,0 C 2,8 C 82 % 1024,2 hPa 0,0 l/m 0 min 0 min 0 W/m 9,7 km/h (2 Bft) 100,00 %
21.03.2021 21:22 5,7 C 5,0 C 2,8 C 82 % 1024,2 hPa 0,0 l/m 0 min 0 min 0 W/m 9,7 km/h (2 Bft) 100,00 %
21.03.2021 21:24 5,6 C 5,0 C 2,8 C 82 % 1024,2 hPa 0,0 l/m 0 min 0 min 0 W/m 12,9 km/h (3 Bft) 97,87 %
21.03.2021 21:26 5,6 C 5,0 C 2,8 C 82 % 1024,2 hPa 0,0 l/m 0 min 0 min 0 W/m 12,9 km/h (3 Bft) 100,00 %
21.03.2021 21:28 5,6 C 5,0 C 2,8 C 82 % 1024,2 hPa 0,0 l/m 0 min 0 min 0 W/m 16,1 km/h (3 Bft) 100,00 %
21.03.2021 21:30 5,6 C 5,0 C 2,8 C 82 % 1024,2 hPa 0,0 l/m 0 min 0 min 0 W/m 9,7 km/h (2 Bft) 100,00 %
21.03.2021 21:32 5,6 C 5,0 C 2,8 C 82 % 1024,2 hPa 0,0 l/m 0 min 0 min 0 W/m 16,1 km/h (3 Bft) 100,00 %
21.03.2021 21:34 5,6 C 5,0 C 2,8 C 81 % 1024,2 hPa 0,0 l/m 0 min 0 min 0 W/m 19,3 km/h (3 Bft) 100,00 %
21.03.2021 21:36 5,5 C 5,0 C 2,3 C 81 % 1024,2 hPa 0,0 l/m 0 min 0 min 0 W/m 12,9 km/h (3 Bft) 100,00 %
21.03.2021 21:38 5,5 C 4,4 C 2,3 C 81 % 1024,3 hPa 0,0 l/m 0 min 0 min 0 W/m 9,7 km/h (2 Bft) 100,00 %
21.03.2021 21:40 5,5 C 4,4 C 2,3 C 81 % 1024,3 hPa 0,0 l/m 0 min 0 min 0 W/m 9,7 km/h (2 Bft) 100,00 %
21.03.2021 21:42 5,5 C 4,4 C 2,3 C 81 % 1024,3 hPa 0,0 l/m 0 min 0 min 0 W/m 9,7 km/h (2 Bft) 100,00 %
21.03.2021 21:44 5,5 C 4,4 C 2,3 C 81 % 1024,3 hPa 0,0 l/m 0 min 0 min 0 W/m 9,7 km/h (2 Bft) 100,00 %
21.03.2021 21:46 5,5 C 4,4 C 2,3 C 82 % 1024,4 hPa 0,0 l/m 0 min 0 min 0 W/m 9,7 km/h (2 Bft) 100,00 %
21.03.2021 21:48 5,4 C 4,4 C 2,3 C 82 % 1024,4 hPa 0,0 l/m 0 min 0 min 0 W/m 16,1 km/h (3 Bft) 100,00 %
21.03.2021 21:50 5,4 C 4,4 C 2,3 C 82 % 1024,4 hPa 0,0 l/m 0 min 0 min 0 W/m 25,7 km/h (4 Bft) 97,87 %
21.03.2021 21:52 5,4 C 4,4 C 2,3 C 82 % 1024,3 hPa 0,0 l/m 0 min 0 min 0 W/m 19,3 km/h (3 Bft) 100,00 %
21.03.2021 21:54 5,4 C 4,4 C 2,3 C 82 % 1024,3 hPa 0,0 l/m 0 min 0 min 0 W/m 16,1 km/h (3 Bft) 97,83 %
21.03.2021 21:56 5,4 C 4,4 C 2,3 C 82 % 1024,3 hPa 0,0 l/m 0 min 0 min 0 W/m 29,0 km/h (5 Bft) 100,00 %
21.03.2021 21:58 5,3 C 4,4 C 2,3 C 82 % 1024,3 hPa 0,0 l/m 0 min 0 min 0 W/m 16,1 km/h (3 Bft) 100,00 %
21.03.2021 22:00 5,3 C 4,4 C 2,3 C 81 % 1024,4 hPa 0,0 l/m 0 min 0 min 0 W/m 29,0 km/h (5 Bft) 100,00 %
21.03.2021 22:02 5,3 C 4,4 C 2,3 C 81 % 1024,3 hPa 0,0 l/m 0 min 0 min 0 W/m 12,9 km/h (3 Bft) 97,87 %
21.03.2021 22:04 5,3 C 4,4 C 2,3 C 81 % 1024,3 hPa 0,0 l/m 0 min 0 min 0 W/m 16,1 km/h (3 Bft) 97,87 %
21.03.2021 22:06 5,3 C 4,4 C 2,3 C 81 % 1024,3 hPa 0,0 l/m 0 min 0 min 0 W/m 19,3 km/h (3 Bft) 100,00 %
21.03.2021 22:08 5,3 C 4,4 C 2,3 C 81 % 1024,4 hPa 0,0 l/m 0 min 0 min 0 W/m 22,5 km/h (4 Bft) 95,74 %
21.03.2021 22:10 5,3 C 4,4 C 2,3 C 81 % 1024,3 hPa 0,0 l/m 0 min 0 min 0 W/m 16,1 km/h (3 Bft) 97,87 %
21.03.2021 22:12 5,3 C 4,4 C 2,3 C 81 % 1024,3 hPa 0,0 l/m 0 min 0 min 0 W/m 9,7 km/h (2 Bft) 97,87 %
21.03.2021 22:14 5,2 C 4,4 C 2,3 C 82 % 1024,4 hPa 0,0 l/m 0 min 0 min 0 W/m 25,7 km/h (4 Bft) 97,87 %
21.03.2021 22:16 5,2 C 4,4 C 2,3 C 82 % 1024,3 hPa 0,0 l/m 0 min 0 min 0 W/m 22,5 km/h (4 Bft) 95,83 %
21.03.2021 22:18 5,2 C 4,4 C 2,3 C 82 % 1024,4 hPa 0,0 l/m 0 min 0 min 0 W/m 22,5 km/h (4 Bft) 97,87 %
21.03.2021 22:20 5,2 C 4,4 C 2,3 C 81 % 1024,4 hPa 0,0 l/m 0 min 0 min 0 W/m 25,7 km/h (4 Bft) 97,87 %
21.03.2021 22:22 5,1 C 4,4 C 2,3 C 81 % 1024,4 hPa 0,0 l/m 0 min 0 min 0 W/m 19,3 km/h (3 Bft) 95,74 %
21.03.2021 22:24 5,1 C 4,4 C 2,3 C 81 % 1024,4 hPa 0,0 l/m 0 min 0 min 0 W/m 16,1 km/h (3 Bft) 95,74 %
21.03.2021 22:26 5,1 C 4,4 C 2,3 C 82 % 1024,4 hPa 0,0 l/m 0 min 0 min 0 W/m 12,9 km/h (3 Bft) 95,74 %
21.03.2021 22:28 5,1 C 4,4 C 2,3 C 82 % 1024,4 hPa 0,0 l/m 0 min 0 min 0 W/m 16,1 km/h (3 Bft) 97,83 %
21.03.2021 22:30 5,1 C 4,4 C 2,3 C 82 % 1024,4 hPa 0,0 l/m 0 min 0 min 0 W/m 12,9 km/h (3 Bft) 97,87 %
21.03.2021 22:32 5,1 C 4,4 C 2,3 C 82 % 1024,4 hPa 0,0 l/m 0 min 0 min 0 W/m 19,3 km/h (3 Bft) 95,74 %
21.03.2021 22:34 5,1 C 4,4 C 2,3 C 82 % 1024,4 hPa 0,0 l/m 0 min 0 min 0 W/m 16,1 km/h (3 Bft) 97,87 %
21.03.2021 22:36 5,1 C 4,4 C 2,3 C 82 % 1024,5 hPa 0,0 l/m 0 min 0 min 0 W/m 16,1 km/h (3 Bft) 97,87 %
21.03.2021 22:38 5,1 C 4,4 C 2,3 C 82 % 1024,5 hPa 0,0 l/m 0 min 0 min 0 W/m 12,9 km/h (3 Bft) 97,87 %
21.03.2021 22:40 5,1 C 4,4 C 2,3 C 82 % 1024,6 hPa 0,0 l/m 0 min 0 min 0 W/m 12,9 km/h (3 Bft) 97,83 %
21.03.2021 22:42 5,1 C 4,4 C 2,3 C 82 % 1024,6 hPa 0,0 l/m 0 min 0 min 0 W/m 19,3 km/h (3 Bft) 97,87 %
21.03.2021 22:44 5,1 C 4,4 C 2,3 C 82 % 1024,6 hPa 0,0 l/m 0 min 0 min 0 W/m 12,9 km/h (3 Bft) 95,74 %
21.03.2021 22:46 5,1 C 4,4 C 2,3 C 82 % 1024,6 hPa 0,0 l/m 0 min 0 min 0 W/m 9,7 km/h (2 Bft) 97,87 %
21.03.2021 22:48 5,1 C 4,4 C 2,3 C 82 % 1024,6 hPa 0,0 l/m 0 min 0 min 0 W/m 12,9 km/h (3 Bft) 95,74 %
21.03.2021 22:50 5,1 C 4,4 C 2,3 C 82 % 1024,6 hPa 0,0 l/m 0 min 0 min 0 W/m 16,1 km/h (3 Bft) 100,00 %
21.03.2021 22:52 5,1 C 4,4 C 2,3 C 82 % 1024,6 hPa 0,0 l/m 0 min 0 min 0 W/m 19,3 km/h (3 Bft) 97,83 %
21.03.2021 22:54 5,1 C 4,4 C 2,3 C 82 % 1024,7 hPa 0,0 l/m 0 min 0 min 0 W/m 12,9 km/h (3 Bft) 97,87 %
21.03.2021 22:56 5,1 C 4,4 C 2,3 C 82 % 1024,7 hPa 0,0 l/m 0 min 0 min 0 W/m 12,9 km/h (3 Bft) 97,30 %
21.03.2021 22:58 5,1 C 4,4 C 2,3 C 82 % 1024,7 hPa 0,0 l/m 0 min 0 min 0 W/m 16,1 km/h (3 Bft) 87,23 %
21.03.2021 23:00 5,1 C 4,4 C 2,3 C 82 % 1024,6 hPa 0,0 l/m 0 min 0 min 0 W/m 12,9 km/h (3 Bft) 60,47 %
21.03.2021 23:02 5,1 C 4,4 C 2,3 C 82 % 1024,6 hPa 0,0 l/m 0 min 0 min 0 W/m 9,7 km/h (2 Bft) 97,83 %
21.03.2021 23:04 5,1 C 4,4 C 2,3 C 82 % 1024,6 hPa 0,0 l/m 0 min 0 min 0 W/m 6,4 km/h (2 Bft) 97,87 %
21.03.2021 23:06 5,1 C 4,4 C 2,3 C 82 % 1024,6 hPa 0,0 l/m 0 min 0 min 0 W/m 9,7 km/h (2 Bft) 97,87 %
21.03.2021 23:08 5,1 C 4,4 C 2,3 C 82 % 1024,6 hPa 0,0 l/m 0 min 0 min 0 W/m 9,7 km/h (2 Bft) 97,87 %
21.03.2021 23:10 5,1 C 4,4 C 2,3 C 82 % 1024,6 hPa 0,0 l/m 0 min 0 min 0 W/m 16,1 km/h (3 Bft) 95,74 %
21.03.2021 23:12 5,1 C 4,4 C 2,3 C 82 % 1024,7 hPa 0,0 l/m 0 min 0 min 0 W/m 9,7 km/h (2 Bft) 95,65 %
21.03.2021 23:14 5,1 C 4,4 C 2,3 C 82 % 1024,5 hPa 0,0 l/m 0 min 0 min 0 W/m 12,9 km/h (3 Bft) 93,62 %
21.03.2021 23:16 5,1 C 4,4 C 2,3 C 82 % 1024,6 hPa 0,0 l/m 0 min 0 min 0 W/m 19,3 km/h (3 Bft) 95,74 %
21.03.2021 23:18 5,0 C 4,4 C 2,3 C 82 % 1024,6 hPa 0,0 l/m 0 min 0 min 0 W/m 9,7 km/h (2 Bft) 96,36 %
21.03.2021 23:20 5,0 C 4,4 C 2,3 C 82 % 1024,6 hPa 0,0 l/m 0 min 0 min 0 W/m 19,3 km/h (3 Bft) 93,75 %
21.03.2021 23:22 5,0 C 4,4 C 2,3 C 83 % 1024,6 hPa 0,0 l/m 0 min 0 min 0 W/m 9,7 km/h (2 Bft) 95,74 %
21.03.2021 23:24 5,0 C 4,4 C 2,3 C 83 % 1024,6 hPa 0,0 l/m 0 min 0 min 0 W/m 12,9 km/h (3 Bft) 95,74 %
21.03.2021 23:26 5,0 C 4,4 C 2,3 C 83 % 1024,6 hPa 0,0 l/m 0 min 0 min 0 W/m 12,9 km/h (3 Bft) 93,62 %
21.03.2021 23:28 5,0 C 4,4 C 2,3 C 83 % 1024,6 hPa 0,0 l/m 0 min 0 min 0 W/m 9,7 km/h (2 Bft) 95,65 %
21.03.2021 23:30 5,0 C 4,4 C 2,3 C 83 % 1024,7 hPa 0,0 l/m 0 min 0 min 0 W/m 9,7 km/h (2 Bft) 95,74 %
21.03.2021 23:32 5,0 C 4,4 C 2,3 C 83 % 1024,7 hPa 0,0 l/m 0 min 0 min 0 W/m 16,1 km/h (3 Bft) 95,83 %
21.03.2021 23:34 5,0 C 4,4 C 2,3 C 83 % 1024,7 hPa 0,0 l/m 0 min 0 min 0 W/m 9,7 km/h (2 Bft) 95,74 %
21.03.2021 23:36 5,0 C 4,4 C 2,3 C 83 % 1024,7 hPa 0,0 l/m 0 min 0 min 0 W/m 16,1 km/h (3 Bft) 95,74 %
21.03.2021 23:38 5,0 C 4,4 C 2,3 C 83 % 1024,7 hPa 0,0 l/m 0 min 0 min 0 W/m 16,1 km/h (3 Bft) 95,74 %
21.03.2021 23:40 5,0 C 4,4 C 2,3 C 83 % 1024,7 hPa 0,0 l/m 0 min 0 min 0 W/m 16,1 km/h (3 Bft) 95,65 %
21.03.2021 23:42 5,0 C 4,4 C 2,3 C 83 % 1024,6 hPa 0,0 l/m 0 min 0 min 0 W/m 12,9 km/h (3 Bft) 97,87 %
21.03.2021 23:44 5,0 C 4,4 C 2,3 C 83 % 1024,7 hPa 0,0 l/m 0 min 0 min 0 W/m 12,9 km/h (3 Bft) 97,87 %
21.03.2021 23:46 5,0 C 4,4 C 2,3 C 83 % 1024,7 hPa 0,0 l/m 0 min 0 min 0 W/m 9,7 km/h (2 Bft) 95,74 %
21.03.2021 23:48 5,0 C 4,4 C 2,3 C 83 % 1024,7 hPa 0,0 l/m 0 min 0 min 0 W/m 9,7 km/h (2 Bft) 97,87 %
21.03.2021 23:50 5,0 C 4,4 C 2,3 C 83 % 1024,6 hPa 0,0 l/m 0 min 0 min 0 W/m 12,9 km/h (3 Bft) 97,87 %
21.03.2021 23:52 5,0 C 4,4 C 2,3 C 83 % 1024,7 hPa 0,0 l/m 0 min 0 min 0 W/m 22,5 km/h (4 Bft) 95,65 %
21.03.2021 23:54 5,0 C 4,4 C 2,3 C 84 % 1024,6 hPa 0,0 l/m 0 min 0 min 0 W/m 12,9 km/h (3 Bft) 97,87 %
21.03.2021 23:56 5,0 C 4,4 C 2,3 C 84 % 1024,6 hPa 0,0 l/m 0 min 0 min 0 W/m 9,7 km/h (2 Bft) 95,74 %
21.03.2021 23:58 5,0 C 4,4 C 2,3 C 84 % 1024,6 hPa 0,0 l/m 0 min 0 min 0 W/m 12,9 km/h (3 Bft) 97,87 %
_ Min-Zeit 02:34 01:40 00:46 14:48 07:00 - - - - 00:02 06:22
Minimum _ 5,0 C 4,4 C 2,3 C 70 % 1022,2 hPa - - - - 3,2 km/h (1 Bft) 47,06 %
_ Max-Zeit 15:08 15:04 11:48 06:22 00:00 06:08 09:38 05:50 15:04 11:50 00:02
Maximum _ 8,6 C 11,1 C 6,7 C 98 % 1025,5 hPa 0,2 l/m 2 min 2 min 416 W/m 48,3 km/h
N (6 Bft)
100,00 %
Durchschnitt _ 6,3 C 6,0 C 3,9 C 85 % 1023,4 hPa #0,2 l/m #46 min. #18 min. 143 W/m 18,0 km/h (3 Bft) 96,63 %
© 2021 W. Hausmann